<?xml version="1.0" encoding="UTF-8" standalone="no" ?>
<gpx xmlns="http://www.topografix.com/GPX/1/1" xmlns:xsi="http://www.w3.org/2001/XMLSchema-instance" xsi:schemaLocation="http://www.topografix.com/GPX/1/1 http://www.topografix.com/GPX/1/1/gpx.xsd" version="1.1" creator="VisuGPX - https://www.visugpx.com">
  <metadata>
    <name>Circuit des aqueducs</name>
    <desc><![CDATA[Circuit des aqueducs au départ de St Didier sous Riverie]]></desc>
  </metadata>
  <trk>
    <name><![CDATA[Untitled]]></name>
    <trkseg>
      <trkpt lat="45.59992" lon="4.60439">
        <ele>536.79998779297</ele>
        <time>2011-06-12T12:52:09.000Z</time>
      </trkpt>
      <trkpt lat="45.59997" lon="4.60438">
        <ele>536.79998779297</ele>
        <time>2011-06-12T12:52:22.000Z</time>
      </trkpt>
      <trkpt lat="45.59997" lon="4.60438">
        <ele>536.79998779297</ele>
        <time>2011-06-12T12:52:23.000Z</time>
      </trkpt>
      <trkpt lat="45.59998" lon="4.60437">
        <ele>537</ele>
        <time>2011-06-12T12:52:32.000Z</time>
      </trkpt>
      <trkpt lat="45.59998" lon="4.60437">
        <ele>536.79998779297</ele>
        <time>2011-06-12T12:52:34.000Z</time>
      </trkpt>
      <trkpt lat="45.59997" lon="4.60437">
        <ele>536.79998779297</ele>
        <time>2011-06-12T12:52:36.000Z</time>
      </trkpt>
      <trkpt lat="45.59997" lon="4.60438">
        <ele>536.79998779297</ele>
        <time>2011-06-12T12:52:38.000Z</time>
      </trkpt>
      <trkpt lat="45.59996" lon="4.60439">
        <ele>536.79998779297</ele>
        <time>2011-06-12T12:52:41.000Z</time>
      </trkpt>
      <trkpt lat="45.59994" lon="4.6044">
        <ele>536.79998779297</ele>
        <time>2011-06-12T12:52:45.000Z</time>
      </trkpt>
      <trkpt lat="45.59997" lon="4.60442">
        <ele>536.59997558594</ele>
        <time>2011-06-12T12:52:49.000Z</time>
      </trkpt>
      <trkpt lat="45.59999" lon="4.60443">
        <ele>536.59997558594</ele>
        <time>2011-06-12T12:52:51.000Z</time>
      </trkpt>
      <trkpt lat="45.59996" lon="4.6045">
        <ele>536.20001220703</ele>
        <time>2011-06-12T12:52:57.000Z</time>
      </trkpt>
      <trkpt lat="45.59995" lon="4.60451">
        <ele>536.20001220703</ele>
        <time>2011-06-12T12:52:58.000Z</time>
      </trkpt>
      <trkpt lat="45.59994" lon="4.60453">
        <ele>536.20001220703</ele>
        <time>2011-06-12T12:53:00.000Z</time>
      </trkpt>
      <trkpt lat="45.5999" lon="4.60455">
        <ele>536</ele>
        <time>2011-06-12T12:53:03.000Z</time>
      </trkpt>
      <trkpt lat="45.59987" lon="4.60457">
        <ele>536</ele>
        <time>2011-06-12T12:53:04.000Z</time>
      </trkpt>
      <trkpt lat="45.59977" lon="4.60467">
        <ele>535.59997558594</ele>
        <time>2011-06-12T12:53:11.000Z</time>
      </trkpt>
      <trkpt lat="45.59974" lon="4.60475">
        <ele>535.20001220703</ele>
        <time>2011-06-12T12:53:16.000Z</time>
      </trkpt>
      <trkpt lat="45.59968" lon="4.6048">
        <ele>535</ele>
        <time>2011-06-12T12:53:21.000Z</time>
      </trkpt>
      <trkpt lat="45.59963" lon="4.60488">
        <ele>534.79998779297</ele>
        <time>2011-06-12T12:53:26.000Z</time>
      </trkpt>
      <trkpt lat="45.59957" lon="4.60496">
        <ele>534.59997558594</ele>
        <time>2011-06-12T12:53:31.000Z</time>
      </trkpt>
      <trkpt lat="45.59953" lon="4.60506">
        <ele>534.20001220703</ele>
        <time>2011-06-12T12:53:37.000Z</time>
      </trkpt>
      <trkpt lat="45.59943" lon="4.60515">
        <ele>534</ele>
        <time>2011-06-12T12:53:45.000Z</time>
      </trkpt>
      <trkpt lat="45.59936" lon="4.60517">
        <ele>534</ele>
        <time>2011-06-12T12:53:50.000Z</time>
      </trkpt>
      <trkpt lat="45.59927" lon="4.60526">
        <ele>533.79998779297</ele>
        <time>2011-06-12T12:53:58.000Z</time>
      </trkpt>
      <trkpt lat="45.59914" lon="4.60542">
        <ele>533.40002441406</ele>
        <time>2011-06-12T12:54:09.000Z</time>
      </trkpt>
      <trkpt lat="45.59904" lon="4.60558">
        <ele>532.59997558594</ele>
        <time>2011-06-12T12:54:20.000Z</time>
      </trkpt>
      <trkpt lat="45.59899" lon="4.60567">
        <ele>532.40002441406</ele>
        <time>2011-06-12T12:54:26.000Z</time>
      </trkpt>
      <trkpt lat="45.59894" lon="4.60576">
        <ele>532</ele>
        <time>2011-06-12T12:54:32.000Z</time>
      </trkpt>
      <trkpt lat="45.59885" lon="4.6059">
        <ele>531.79998779297</ele>
        <time>2011-06-12T12:54:42.000Z</time>
      </trkpt>
      <trkpt lat="45.59882" lon="4.60595">
        <ele>531.59997558594</ele>
        <time>2011-06-12T12:54:46.000Z</time>
      </trkpt>
      <trkpt lat="45.59872" lon="4.60609">
        <ele>531.40002441406</ele>
        <time>2011-06-12T12:54:57.000Z</time>
      </trkpt>
      <trkpt lat="45.59865" lon="4.60619">
        <ele>531.40002441406</ele>
        <time>2011-06-12T12:55:04.000Z</time>
      </trkpt>
      <trkpt lat="45.59861" lon="4.60627">
        <ele>531.20001220703</ele>
        <time>2011-06-12T12:55:10.000Z</time>
      </trkpt>
      <trkpt lat="45.59857" lon="4.60632">
        <ele>531.20001220703</ele>
        <time>2011-06-12T12:55:14.000Z</time>
      </trkpt>
      <trkpt lat="45.59839" lon="4.60644">
        <ele>531.20001220703</ele>
        <time>2011-06-12T12:55:30.000Z</time>
      </trkpt>
      <trkpt lat="45.59822" lon="4.60644">
        <ele>530.59997558594</ele>
        <time>2011-06-12T12:55:44.000Z</time>
      </trkpt>
      <trkpt lat="45.59818" lon="4.60645">
        <ele>530.20001220703</ele>
        <time>2011-06-12T12:55:48.000Z</time>
      </trkpt>
      <trkpt lat="45.59813" lon="4.60649">
        <ele>530</ele>
        <time>2011-06-12T12:55:52.000Z</time>
      </trkpt>
      <trkpt lat="45.59806" lon="4.60653">
        <ele>529.59997558594</ele>
        <time>2011-06-12T12:55:58.000Z</time>
      </trkpt>
      <trkpt lat="45.59801" lon="4.60656">
        <ele>529.40002441406</ele>
        <time>2011-06-12T12:56:02.000Z</time>
      </trkpt>
      <trkpt lat="45.59786" lon="4.60662">
        <ele>528.59997558594</ele>
        <time>2011-06-12T12:56:14.000Z</time>
      </trkpt>
      <trkpt lat="45.59774" lon="4.60672">
        <ele>528</ele>
        <time>2011-06-12T12:56:24.000Z</time>
      </trkpt>
      <trkpt lat="45.59763" lon="4.60683">
        <ele>527.59997558594</ele>
        <time>2011-06-12T12:56:34.000Z</time>
      </trkpt>
      <trkpt lat="45.59742" lon="4.60696">
        <ele>526.59997558594</ele>
        <time>2011-06-12T12:56:51.000Z</time>
      </trkpt>
      <trkpt lat="45.59727" lon="4.60709">
        <ele>525.40002441406</ele>
        <time>2011-06-12T12:57:06.000Z</time>
      </trkpt>
      <trkpt lat="45.59725" lon="4.6071">
        <ele>525.40002441406</ele>
        <time>2011-06-12T12:57:08.000Z</time>
      </trkpt>
      <trkpt lat="45.5971" lon="4.60721">
        <ele>524.59997558594</ele>
        <time>2011-06-12T12:57:21.000Z</time>
      </trkpt>
      <trkpt lat="45.59704" lon="4.60725">
        <ele>524.40002441406</ele>
        <time>2011-06-12T12:57:27.000Z</time>
      </trkpt>
      <trkpt lat="45.59701" lon="4.60728">
        <ele>524.40002441406</ele>
        <time>2011-06-12T12:57:30.000Z</time>
      </trkpt>
      <trkpt lat="45.59687" lon="4.60741">
        <ele>524.20001220703</ele>
        <time>2011-06-12T12:57:43.000Z</time>
      </trkpt>
      <trkpt lat="45.59683" lon="4.60744">
        <ele>524.20001220703</ele>
        <time>2011-06-12T12:57:46.000Z</time>
      </trkpt>
      <trkpt lat="45.59669" lon="4.60753">
        <ele>524</ele>
        <time>2011-06-12T12:57:58.000Z</time>
      </trkpt>
      <trkpt lat="45.59667" lon="4.60755">
        <ele>524</ele>
        <time>2011-06-12T12:58:00.000Z</time>
      </trkpt>
      <trkpt lat="45.59652" lon="4.60768">
        <ele>522.79998779297</ele>
        <time>2011-06-12T12:58:13.000Z</time>
      </trkpt>
      <trkpt lat="45.59648" lon="4.60773">
        <ele>522.59997558594</ele>
        <time>2011-06-12T12:58:17.000Z</time>
      </trkpt>
      <trkpt lat="45.59647" lon="4.60775">
        <ele>522.59997558594</ele>
        <time>2011-06-12T12:58:19.000Z</time>
      </trkpt>
      <trkpt lat="45.59639" lon="4.6078">
        <ele>522.20001220703</ele>
        <time>2011-06-12T12:58:25.000Z</time>
      </trkpt>
      <trkpt lat="45.59635" lon="4.60782">
        <ele>522</ele>
        <time>2011-06-12T12:58:28.000Z</time>
      </trkpt>
      <trkpt lat="45.59634" lon="4.60784">
        <ele>522</ele>
        <time>2011-06-12T12:58:30.000Z</time>
      </trkpt>
      <trkpt lat="45.5963" lon="4.6079">
        <ele>522</ele>
        <time>2011-06-12T12:58:34.000Z</time>
      </trkpt>
      <trkpt lat="45.59615" lon="4.60802">
        <ele>522</ele>
        <time>2011-06-12T12:58:46.000Z</time>
      </trkpt>
      <trkpt lat="45.59597" lon="4.60799">
        <ele>521.20001220703</ele>
        <time>2011-06-12T12:58:59.000Z</time>
      </trkpt>
      <trkpt lat="45.5958" lon="4.60797">
        <ele>519.59997558594</ele>
        <time>2011-06-12T12:59:12.000Z</time>
      </trkpt>
      <trkpt lat="45.59568" lon="4.60813">
        <ele>518.59997558594</ele>
        <time>2011-06-12T12:59:25.000Z</time>
      </trkpt>
      <trkpt lat="45.59565" lon="4.60816">
        <ele>518.40002441406</ele>
        <time>2011-06-12T12:59:29.000Z</time>
      </trkpt>
      <trkpt lat="45.59562" lon="4.60822">
        <ele>518.40002441406</ele>
        <time>2011-06-12T12:59:34.000Z</time>
      </trkpt>
      <trkpt lat="45.59556" lon="4.60836">
        <ele>518.40002441406</ele>
        <time>2011-06-12T12:59:42.000Z</time>
      </trkpt>
      <trkpt lat="45.59555" lon="4.60838">
        <ele>518</ele>
        <time>2011-06-12T12:59:44.000Z</time>
      </trkpt>
      <trkpt lat="45.59553" lon="4.60861">
        <ele>518</ele>
        <time>2011-06-12T12:59:56.000Z</time>
      </trkpt>
      <trkpt lat="45.59553" lon="4.6087">
        <ele>518</ele>
        <time>2011-06-12T13:00:03.000Z</time>
      </trkpt>
      <trkpt lat="45.59555" lon="4.60879">
        <ele>518.40002441406</ele>
        <time>2011-06-12T13:00:09.000Z</time>
      </trkpt>
      <trkpt lat="45.59562" lon="4.6089">
        <ele>519.40002441406</ele>
        <time>2011-06-12T13:00:23.000Z</time>
      </trkpt>
      <trkpt lat="45.59561" lon="4.60895">
        <ele>519.20001220703</ele>
        <time>2011-06-12T13:00:31.000Z</time>
      </trkpt>
      <trkpt lat="45.59561" lon="4.60896">
        <ele>519.20001220703</ele>
        <time>2011-06-12T13:00:50.000Z</time>
      </trkpt>
      <trkpt lat="45.59561" lon="4.60896">
        <ele>519.20001220703</ele>
        <time>2011-06-12T13:01:13.000Z</time>
      </trkpt>
      <trkpt lat="45.59561" lon="4.60895">
        <ele>519.20001220703</ele>
        <time>2011-06-12T13:01:32.000Z</time>
      </trkpt>
      <trkpt lat="45.59561" lon="4.60896">
        <ele>519.20001220703</ele>
        <time>2011-06-12T13:01:51.000Z</time>
      </trkpt>
      <trkpt lat="45.5956" lon="4.60896">
        <ele>519.20001220703</ele>
        <time>2011-06-12T13:01:52.000Z</time>
      </trkpt>
      <trkpt lat="45.59557" lon="4.609">
        <ele>518.59997558594</ele>
        <time>2011-06-12T13:01:57.000Z</time>
      </trkpt>
      <trkpt lat="45.59556" lon="4.60902">
        <ele>518.59997558594</ele>
        <time>2011-06-12T13:01:59.000Z</time>
      </trkpt>
      <trkpt lat="45.59554" lon="4.60904">
        <ele>518.40002441406</ele>
        <time>2011-06-12T13:02:02.000Z</time>
      </trkpt>
      <trkpt lat="45.59554" lon="4.60906">
        <ele>518.40002441406</ele>
        <time>2011-06-12T13:02:04.000Z</time>
      </trkpt>
      <trkpt lat="45.59553" lon="4.60909">
        <ele>518.20001220703</ele>
        <time>2011-06-12T13:02:06.000Z</time>
      </trkpt>
      <trkpt lat="45.59549" lon="4.60914">
        <ele>517.79998779297</ele>
        <time>2011-06-12T13:02:11.000Z</time>
      </trkpt>
      <trkpt lat="45.59547" lon="4.60918">
        <ele>517.40002441406</ele>
        <time>2011-06-12T13:02:14.000Z</time>
      </trkpt>
      <trkpt lat="45.59547" lon="4.60945">
        <ele>515.40002441406</ele>
        <time>2011-06-12T13:02:29.000Z</time>
      </trkpt>
      <trkpt lat="45.59548" lon="4.60949">
        <ele>515.20001220703</ele>
        <time>2011-06-12T13:02:35.000Z</time>
      </trkpt>
      <trkpt lat="45.59552" lon="4.60965">
        <ele>514.59997558594</ele>
        <time>2011-06-12T13:02:49.000Z</time>
      </trkpt>
      <trkpt lat="45.59556" lon="4.60994">
        <ele>512.79998779297</ele>
        <time>2011-06-12T13:03:04.000Z</time>
      </trkpt>
      <trkpt lat="45.59555" lon="4.60994">
        <ele>512.59997558594</ele>
        <time>2011-06-12T13:03:05.000Z</time>
      </trkpt>
      <trkpt lat="45.59533" lon="4.60998">
        <ele>510.20001220703</ele>
        <time>2011-06-12T13:03:25.000Z</time>
      </trkpt>
      <trkpt lat="45.59519" lon="4.60988">
        <ele>509.39999389648</ele>
        <time>2011-06-12T13:03:41.000Z</time>
      </trkpt>
      <trkpt lat="45.59502" lon="4.60961">
        <ele>509.39999389648</ele>
        <time>2011-06-12T13:03:58.000Z</time>
      </trkpt>
      <trkpt lat="45.59487" lon="4.60928">
        <ele>508.20001220703</ele>
        <time>2011-06-12T13:04:16.000Z</time>
      </trkpt>
      <trkpt lat="45.59477" lon="4.60899">
        <ele>505</ele>
        <time>2011-06-12T13:04:31.000Z</time>
      </trkpt>
      <trkpt lat="45.59473" lon="4.60887">
        <ele>503.20001220703</ele>
        <time>2011-06-12T13:04:39.000Z</time>
      </trkpt>
      <trkpt lat="45.59468" lon="4.60882">
        <ele>501.60000610352</ele>
        <time>2011-06-12T13:04:44.000Z</time>
      </trkpt>
      <trkpt lat="45.59461" lon="4.60866">
        <ele>498.39999389648</ele>
        <time>2011-06-12T13:05:00.000Z</time>
      </trkpt>
      <trkpt lat="45.5946" lon="4.60861">
        <ele>497.79998779297</ele>
        <time>2011-06-12T13:05:04.000Z</time>
      </trkpt>
      <trkpt lat="45.59459" lon="4.60858">
        <ele>497.20001220703</ele>
        <time>2011-06-12T13:05:06.000Z</time>
      </trkpt>
      <trkpt lat="45.59458" lon="4.6085">
        <ele>496.20001220703</ele>
        <time>2011-06-12T13:05:14.000Z</time>
      </trkpt>
      <trkpt lat="45.59459" lon="4.60847">
        <ele>496.20001220703</ele>
        <time>2011-06-12T13:05:16.000Z</time>
      </trkpt>
      <trkpt lat="45.59461" lon="4.60837">
        <ele>495.79998779297</ele>
        <time>2011-06-12T13:05:22.000Z</time>
      </trkpt>
      <trkpt lat="45.59464" lon="4.60826">
        <ele>495.79998779297</ele>
        <time>2011-06-12T13:05:28.000Z</time>
      </trkpt>
      <trkpt lat="45.59465" lon="4.60822">
        <ele>495.60000610352</ele>
        <time>2011-06-12T13:05:30.000Z</time>
      </trkpt>
      <trkpt lat="45.59467" lon="4.60814">
        <ele>495.39999389648</ele>
        <time>2011-06-12T13:05:37.000Z</time>
      </trkpt>
      <trkpt lat="45.59459" lon="4.6082">
        <ele>493.79998779297</ele>
        <time>2011-06-12T13:05:44.000Z</time>
      </trkpt>
      <trkpt lat="45.59452" lon="4.60827">
        <ele>492.39999389648</ele>
        <time>2011-06-12T13:05:51.000Z</time>
      </trkpt>
      <trkpt lat="45.59442" lon="4.60841">
        <ele>490.79998779297</ele>
        <time>2011-06-12T13:06:03.000Z</time>
      </trkpt>
      <trkpt lat="45.59433" lon="4.60854">
        <ele>489.60000610352</ele>
        <time>2011-06-12T13:06:12.000Z</time>
      </trkpt>
      <trkpt lat="45.59428" lon="4.60857">
        <ele>488.60000610352</ele>
        <time>2011-06-12T13:06:17.000Z</time>
      </trkpt>
      <trkpt lat="45.59419" lon="4.60868">
        <ele>487.39999389648</ele>
        <time>2011-06-12T13:06:27.000Z</time>
      </trkpt>
      <trkpt lat="45.59417" lon="4.60871">
        <ele>487</ele>
        <time>2011-06-12T13:06:30.000Z</time>
      </trkpt>
      <trkpt lat="45.59412" lon="4.60876">
        <ele>487</ele>
        <time>2011-06-12T13:06:41.000Z</time>
      </trkpt>
      <trkpt lat="45.59412" lon="4.60873">
        <ele>486.60000610352</ele>
        <time>2011-06-12T13:06:43.000Z</time>
      </trkpt>
      <trkpt lat="45.59414" lon="4.60868">
        <ele>486.20001220703</ele>
        <time>2011-06-12T13:06:46.000Z</time>
      </trkpt>
      <trkpt lat="45.59417" lon="4.6085">
        <ele>484.60000610352</ele>
        <time>2011-06-12T13:06:59.000Z</time>
      </trkpt>
      <trkpt lat="45.59418" lon="4.60833">
        <ele>483.39999389648</ele>
        <time>2011-06-12T13:07:11.000Z</time>
      </trkpt>
      <trkpt lat="45.59419" lon="4.60822">
        <ele>483</ele>
        <time>2011-06-12T13:07:24.000Z</time>
      </trkpt>
      <trkpt lat="45.5942" lon="4.60819">
        <ele>483</ele>
        <time>2011-06-12T13:07:26.000Z</time>
      </trkpt>
      <trkpt lat="45.59417" lon="4.60814">
        <ele>482.20001220703</ele>
        <time>2011-06-12T13:07:30.000Z</time>
      </trkpt>
      <trkpt lat="45.59419" lon="4.60784">
        <ele>481</ele>
        <time>2011-06-12T13:07:46.000Z</time>
      </trkpt>
      <trkpt lat="45.59414" lon="4.60759">
        <ele>479.20001220703</ele>
        <time>2011-06-12T13:08:01.000Z</time>
      </trkpt>
      <trkpt lat="45.59405" lon="4.60737">
        <ele>479.60000610352</ele>
        <time>2011-06-12T13:08:17.000Z</time>
      </trkpt>
      <trkpt lat="45.59388" lon="4.60724">
        <ele>480.20001220703</ele>
        <time>2011-06-12T13:08:31.000Z</time>
      </trkpt>
      <trkpt lat="45.59367" lon="4.60717">
        <ele>480.20001220703</ele>
        <time>2011-06-12T13:08:46.000Z</time>
      </trkpt>
      <trkpt lat="45.5935" lon="4.60715">
        <ele>479.60000610352</ele>
        <time>2011-06-12T13:08:59.000Z</time>
      </trkpt>
      <trkpt lat="45.59333" lon="4.60711">
        <ele>479.39999389648</ele>
        <time>2011-06-12T13:09:11.000Z</time>
      </trkpt>
      <trkpt lat="45.59317" lon="4.60706">
        <ele>477.79998779297</ele>
        <time>2011-06-12T13:09:23.000Z</time>
      </trkpt>
      <trkpt lat="45.59311" lon="4.60706">
        <ele>477</ele>
        <time>2011-06-12T13:09:29.000Z</time>
      </trkpt>
      <trkpt lat="45.59307" lon="4.60705">
        <ele>476.60000610352</ele>
        <time>2011-06-12T13:09:32.000Z</time>
      </trkpt>
      <trkpt lat="45.59301" lon="4.60703">
        <ele>476</ele>
        <time>2011-06-12T13:09:36.000Z</time>
      </trkpt>
      <trkpt lat="45.59284" lon="4.60703">
        <ele>473.39999389648</ele>
        <time>2011-06-12T13:09:51.000Z</time>
      </trkpt>
      <trkpt lat="45.59276" lon="4.60702">
        <ele>472.39999389648</ele>
        <time>2011-06-12T13:09:57.000Z</time>
      </trkpt>
      <trkpt lat="45.59262" lon="4.60696">
        <ele>471.60000610352</ele>
        <time>2011-06-12T13:10:09.000Z</time>
      </trkpt>
      <trkpt lat="45.59259" lon="4.60696">
        <ele>471.39999389648</ele>
        <time>2011-06-12T13:10:11.000Z</time>
      </trkpt>
      <trkpt lat="45.59251" lon="4.60689">
        <ele>471.39999389648</ele>
        <time>2011-06-12T13:10:19.000Z</time>
      </trkpt>
      <trkpt lat="45.59229" lon="4.60682">
        <ele>470.20001220703</ele>
        <time>2011-06-12T13:10:33.000Z</time>
      </trkpt>
      <trkpt lat="45.5921" lon="4.60666">
        <ele>470.60000610352</ele>
        <time>2011-06-12T13:10:49.000Z</time>
      </trkpt>
      <trkpt lat="45.59192" lon="4.60646">
        <ele>469.60000610352</ele>
        <time>2011-06-12T13:11:04.000Z</time>
      </trkpt>
      <trkpt lat="45.59181" lon="4.60623">
        <ele>469.20001220703</ele>
        <time>2011-06-12T13:11:19.000Z</time>
      </trkpt>
      <trkpt lat="45.59177" lon="4.60616">
        <ele>468.79998779297</ele>
        <time>2011-06-12T13:11:24.000Z</time>
      </trkpt>
      <trkpt lat="45.59171" lon="4.60603">
        <ele>468.79998779297</ele>
        <time>2011-06-12T13:11:32.000Z</time>
      </trkpt>
      <trkpt lat="45.59167" lon="4.60597">
        <ele>468.39999389648</ele>
        <time>2011-06-12T13:11:37.000Z</time>
      </trkpt>
      <trkpt lat="45.59166" lon="4.60593">
        <ele>468.39999389648</ele>
        <time>2011-06-12T13:11:40.000Z</time>
      </trkpt>
      <trkpt lat="45.59156" lon="4.6057">
        <ele>467.79998779297</ele>
        <time>2011-06-12T13:11:54.000Z</time>
      </trkpt>
      <trkpt lat="45.59139" lon="4.6055">
        <ele>466</ele>
        <time>2011-06-12T13:12:11.000Z</time>
      </trkpt>
      <trkpt lat="45.59138" lon="4.6055">
        <ele>466</ele>
        <time>2011-06-12T13:12:12.000Z</time>
      </trkpt>
      <trkpt lat="45.59113" lon="4.60534">
        <ele>463</ele>
        <time>2011-06-12T13:12:33.000Z</time>
      </trkpt>
      <trkpt lat="45.59095" lon="4.60519">
        <ele>461</ele>
        <time>2011-06-12T13:12:49.000Z</time>
      </trkpt>
      <trkpt lat="45.59092" lon="4.60516">
        <ele>460.60000610352</ele>
        <time>2011-06-12T13:13:06.000Z</time>
      </trkpt>
      <trkpt lat="45.59092" lon="4.60516">
        <ele>460.60000610352</ele>
        <time>2011-06-12T13:13:14.000Z</time>
      </trkpt>
      <trkpt lat="45.59075" lon="4.60501">
        <ele>459</ele>
        <time>2011-06-12T13:13:30.000Z</time>
      </trkpt>
      <trkpt lat="45.59066" lon="4.60495">
        <ele>458.20001220703</ele>
        <time>2011-06-12T13:13:46.000Z</time>
      </trkpt>
      <trkpt lat="45.59065" lon="4.60492">
        <ele>458.20001220703</ele>
        <time>2011-06-12T13:13:51.000Z</time>
      </trkpt>
      <trkpt lat="45.59056" lon="4.60474">
        <ele>458</ele>
        <time>2011-06-12T13:14:04.000Z</time>
      </trkpt>
      <trkpt lat="45.59047" lon="4.60457">
        <ele>457.79998779297</ele>
        <time>2011-06-12T13:14:19.000Z</time>
      </trkpt>
      <trkpt lat="45.59046" lon="4.60456">
        <ele>457.60000610352</ele>
        <time>2011-06-12T13:14:25.000Z</time>
      </trkpt>
      <trkpt lat="45.59042" lon="4.60453">
        <ele>457.39999389648</ele>
        <time>2011-06-12T13:14:30.000Z</time>
      </trkpt>
      <trkpt lat="45.5902" lon="4.60453">
        <ele>455.20001220703</ele>
        <time>2011-06-12T13:14:45.000Z</time>
      </trkpt>
      <trkpt lat="45.59014" lon="4.60452">
        <ele>454.60000610352</ele>
        <time>2011-06-12T13:14:52.000Z</time>
      </trkpt>
      <trkpt lat="45.59011" lon="4.60452">
        <ele>454.39999389648</ele>
        <time>2011-06-12T13:14:54.000Z</time>
      </trkpt>
      <trkpt lat="45.59003" lon="4.60452">
        <ele>453.60000610352</ele>
        <time>2011-06-12T13:14:59.000Z</time>
      </trkpt>
      <trkpt lat="45.58995" lon="4.60451">
        <ele>453</ele>
        <time>2011-06-12T13:15:09.000Z</time>
      </trkpt>
      <trkpt lat="45.58992" lon="4.6045">
        <ele>452.60000610352</ele>
        <time>2011-06-12T13:15:14.000Z</time>
      </trkpt>
      <trkpt lat="45.58991" lon="4.6045">
        <ele>452.60000610352</ele>
        <time>2011-06-12T13:15:34.000Z</time>
      </trkpt>
      <trkpt lat="45.58991" lon="4.6045">
        <ele>452.60000610352</ele>
        <time>2011-06-12T13:16:01.000Z</time>
      </trkpt>
      <trkpt lat="45.58993" lon="4.60446">
        <ele>453</ele>
        <time>2011-06-12T13:16:27.000Z</time>
      </trkpt>
      <trkpt lat="45.58995" lon="4.60435">
        <ele>453.60000610352</ele>
        <time>2011-06-12T13:16:34.000Z</time>
      </trkpt>
      <trkpt lat="45.58995" lon="4.60424">
        <ele>454.20001220703</ele>
        <time>2011-06-12T13:16:41.000Z</time>
      </trkpt>
      <trkpt lat="45.59004" lon="4.60403">
        <ele>455.60000610352</ele>
        <time>2011-06-12T13:16:56.000Z</time>
      </trkpt>
      <trkpt lat="45.59017" lon="4.6038">
        <ele>457.79998779297</ele>
        <time>2011-06-12T13:17:12.000Z</time>
      </trkpt>
      <trkpt lat="45.59024" lon="4.60367">
        <ele>459</ele>
        <time>2011-06-12T13:17:26.000Z</time>
      </trkpt>
      <trkpt lat="45.59031" lon="4.60356">
        <ele>460.20001220703</ele>
        <time>2011-06-12T13:17:35.000Z</time>
      </trkpt>
      <trkpt lat="45.59028" lon="4.60349">
        <ele>460</ele>
        <time>2011-06-12T13:17:41.000Z</time>
      </trkpt>
      <trkpt lat="45.59023" lon="4.60337">
        <ele>459.79998779297</ele>
        <time>2011-06-12T13:17:50.000Z</time>
      </trkpt>
      <trkpt lat="45.59012" lon="4.60301">
        <ele>460</ele>
        <time>2011-06-12T13:18:08.000Z</time>
      </trkpt>
      <trkpt lat="45.59005" lon="4.60273">
        <ele>460.39999389648</ele>
        <time>2011-06-12T13:18:23.000Z</time>
      </trkpt>
      <trkpt lat="45.58998" lon="4.60255">
        <ele>460.39999389648</ele>
        <time>2011-06-12T13:18:34.000Z</time>
      </trkpt>
      <trkpt lat="45.58994" lon="4.60243">
        <ele>461</ele>
        <time>2011-06-12T13:18:41.000Z</time>
      </trkpt>
      <trkpt lat="45.58981" lon="4.60223">
        <ele>461.39999389648</ele>
        <time>2011-06-12T13:18:55.000Z</time>
      </trkpt>
      <trkpt lat="45.58966" lon="4.60208">
        <ele>461.20001220703</ele>
        <time>2011-06-12T13:19:09.000Z</time>
      </trkpt>
      <trkpt lat="45.58962" lon="4.60203">
        <ele>461</ele>
        <time>2011-06-12T13:19:14.000Z</time>
      </trkpt>
      <trkpt lat="45.58944" lon="4.60196">
        <ele>459.60000610352</ele>
        <time>2011-06-12T13:19:28.000Z</time>
      </trkpt>
      <trkpt lat="45.58925" lon="4.60187">
        <ele>458.20001220703</ele>
        <time>2011-06-12T13:19:42.000Z</time>
      </trkpt>
      <trkpt lat="45.58909" lon="4.60174">
        <ele>456.39999389648</ele>
        <time>2011-06-12T13:19:56.000Z</time>
      </trkpt>
      <trkpt lat="45.58892" lon="4.60161">
        <ele>453.20001220703</ele>
        <time>2011-06-12T13:20:10.000Z</time>
      </trkpt>
      <trkpt lat="45.58881" lon="4.6015">
        <ele>451.20001220703</ele>
        <time>2011-06-12T13:20:25.000Z</time>
      </trkpt>
      <trkpt lat="45.58881" lon="4.60148">
        <ele>451.20001220703</ele>
        <time>2011-06-12T13:20:27.000Z</time>
      </trkpt>
      <trkpt lat="45.58869" lon="4.60125">
        <ele>449.79998779297</ele>
        <time>2011-06-12T13:20:41.000Z</time>
      </trkpt>
      <trkpt lat="45.58855" lon="4.60102">
        <ele>448.39999389648</ele>
        <time>2011-06-12T13:20:56.000Z</time>
      </trkpt>
      <trkpt lat="45.58844" lon="4.60075">
        <ele>447.60000610352</ele>
        <time>2011-06-12T13:21:12.000Z</time>
      </trkpt>
      <trkpt lat="45.58842" lon="4.60072">
        <ele>447.39999389648</ele>
        <time>2011-06-12T13:21:14.000Z</time>
      </trkpt>
      <trkpt lat="45.58839" lon="4.60067">
        <ele>447</ele>
        <time>2011-06-12T13:21:18.000Z</time>
      </trkpt>
      <trkpt lat="45.58833" lon="4.60056">
        <ele>446.20001220703</ele>
        <time>2011-06-12T13:21:25.000Z</time>
      </trkpt>
      <trkpt lat="45.58827" lon="4.60027">
        <ele>446.39999389648</ele>
        <time>2011-06-12T13:21:41.000Z</time>
      </trkpt>
      <trkpt lat="45.58825" lon="4.60021">
        <ele>446.39999389648</ele>
        <time>2011-06-12T13:21:44.000Z</time>
      </trkpt>
      <trkpt lat="45.58824" lon="4.6001">
        <ele>446.79998779297</ele>
        <time>2011-06-12T13:21:49.000Z</time>
      </trkpt>
      <trkpt lat="45.58821" lon="4.59981">
        <ele>448.20001220703</ele>
        <time>2011-06-12T13:22:04.000Z</time>
      </trkpt>
      <trkpt lat="45.58819" lon="4.59959">
        <ele>449.39999389648</ele>
        <time>2011-06-12T13:22:16.000Z</time>
      </trkpt>
      <trkpt lat="45.58818" lon="4.59952">
        <ele>449.79998779297</ele>
        <time>2011-06-12T13:22:20.000Z</time>
      </trkpt>
      <trkpt lat="45.58815" lon="4.59928">
        <ele>451</ele>
        <time>2011-06-12T13:22:35.000Z</time>
      </trkpt>
      <trkpt lat="45.58813" lon="4.5991">
        <ele>451.79998779297</ele>
        <time>2011-06-12T13:22:48.000Z</time>
      </trkpt>
      <trkpt lat="45.58813" lon="4.59908">
        <ele>451.79998779297</ele>
        <time>2011-06-12T13:22:49.000Z</time>
      </trkpt>
      <trkpt lat="45.58809" lon="4.59887">
        <ele>452.60000610352</ele>
        <time>2011-06-12T13:23:03.000Z</time>
      </trkpt>
      <trkpt lat="45.58809" lon="4.59884">
        <ele>452.79998779297</ele>
        <time>2011-06-12T13:23:05.000Z</time>
      </trkpt>
      <trkpt lat="45.58807" lon="4.59871">
        <ele>453.39999389648</ele>
        <time>2011-06-12T13:23:15.000Z</time>
      </trkpt>
      <trkpt lat="45.58807" lon="4.59862">
        <ele>454</ele>
        <time>2011-06-12T13:23:21.000Z</time>
      </trkpt>
      <trkpt lat="45.58807" lon="4.59855">
        <ele>454.79998779297</ele>
        <time>2011-06-12T13:23:26.000Z</time>
      </trkpt>
      <trkpt lat="45.58801" lon="4.59838">
        <ele>454.20001220703</ele>
        <time>2011-06-12T13:23:36.000Z</time>
      </trkpt>
      <trkpt lat="45.58786" lon="4.59808">
        <ele>451.79998779297</ele>
        <time>2011-06-12T13:23:53.000Z</time>
      </trkpt>
      <trkpt lat="45.58783" lon="4.59804">
        <ele>450.79998779297</ele>
        <time>2011-06-12T13:23:57.000Z</time>
      </trkpt>
      <trkpt lat="45.58775" lon="4.59795">
        <ele>449.20001220703</ele>
        <time>2011-06-12T13:24:02.000Z</time>
      </trkpt>
      <trkpt lat="45.58765" lon="4.59787">
        <ele>447</ele>
        <time>2011-06-12T13:24:18.000Z</time>
      </trkpt>
      <trkpt lat="45.58765" lon="4.59787">
        <ele>447</ele>
        <time>2011-06-12T13:24:25.000Z</time>
      </trkpt>
      <trkpt lat="45.58751" lon="4.59784">
        <ele>443.79998779297</ele>
        <time>2011-06-12T13:24:39.000Z</time>
      </trkpt>
      <trkpt lat="45.5875" lon="4.59784">
        <ele>443.79998779297</ele>
        <time>2011-06-12T13:24:40.000Z</time>
      </trkpt>
      <trkpt lat="45.58747" lon="4.59787">
        <ele>444</ele>
        <time>2011-06-12T13:24:43.000Z</time>
      </trkpt>
      <trkpt lat="45.58742" lon="4.59787">
        <ele>444.79998779297</ele>
        <time>2011-06-12T13:24:47.000Z</time>
      </trkpt>
      <trkpt lat="45.58733" lon="4.59789">
        <ele>446.39999389648</ele>
        <time>2011-06-12T13:25:02.000Z</time>
      </trkpt>
      <trkpt lat="45.58733" lon="4.59789">
        <ele>446.39999389648</ele>
        <time>2011-06-12T13:25:04.000Z</time>
      </trkpt>
      <trkpt lat="45.5872" lon="4.59793">
        <ele>448.60000610352</ele>
        <time>2011-06-12T13:25:18.000Z</time>
      </trkpt>
      <trkpt lat="45.58703" lon="4.59799">
        <ele>451.20001220703</ele>
        <time>2011-06-12T13:25:32.000Z</time>
      </trkpt>
      <trkpt lat="45.58691" lon="4.59805">
        <ele>452.79998779297</ele>
        <time>2011-06-12T13:25:42.000Z</time>
      </trkpt>
      <trkpt lat="45.58682" lon="4.59807">
        <ele>454.39999389648</ele>
        <time>2011-06-12T13:25:55.000Z</time>
      </trkpt>
      <trkpt lat="45.58681" lon="4.59806">
        <ele>454.39999389648</ele>
        <time>2011-06-12T13:26:21.000Z</time>
      </trkpt>
      <trkpt lat="45.58681" lon="4.59806">
        <ele>454.39999389648</ele>
        <time>2011-06-12T13:26:39.000Z</time>
      </trkpt>
      <trkpt lat="45.58681" lon="4.59807">
        <ele>454.39999389648</ele>
        <time>2011-06-12T13:27:01.000Z</time>
      </trkpt>
      <trkpt lat="45.58676" lon="4.59808">
        <ele>455.20001220703</ele>
        <time>2011-06-12T13:27:23.000Z</time>
      </trkpt>
      <trkpt lat="45.5867" lon="4.59823">
        <ele>455</ele>
        <time>2011-06-12T13:27:35.000Z</time>
      </trkpt>
      <trkpt lat="45.5867" lon="4.59839">
        <ele>454.20001220703</ele>
        <time>2011-06-12T13:27:50.000Z</time>
      </trkpt>
      <trkpt lat="45.5867" lon="4.59846">
        <ele>453.79998779297</ele>
        <time>2011-06-12T13:27:57.000Z</time>
      </trkpt>
      <trkpt lat="45.5867" lon="4.5985">
        <ele>453.60000610352</ele>
        <time>2011-06-12T13:27:59.000Z</time>
      </trkpt>
      <trkpt lat="45.58667" lon="4.59882">
        <ele>452.39999389648</ele>
        <time>2011-06-12T13:28:15.000Z</time>
      </trkpt>
      <trkpt lat="45.58669" lon="4.59895">
        <ele>451.60000610352</ele>
        <time>2011-06-12T13:28:27.000Z</time>
      </trkpt>
      <trkpt lat="45.5867" lon="4.59926">
        <ele>450.39999389648</ele>
        <time>2011-06-12T13:28:42.000Z</time>
      </trkpt>
      <trkpt lat="45.58671" lon="4.59933">
        <ele>450.20001220703</ele>
        <time>2011-06-12T13:28:48.000Z</time>
      </trkpt>
      <trkpt lat="45.58673" lon="4.59945">
        <ele>449.79998779297</ele>
        <time>2011-06-12T13:28:54.000Z</time>
      </trkpt>
      <trkpt lat="45.58676" lon="4.59979">
        <ele>449.20001220703</ele>
        <time>2011-06-12T13:29:12.000Z</time>
      </trkpt>
      <trkpt lat="45.58678" lon="4.59993">
        <ele>448.60000610352</ele>
        <time>2011-06-12T13:29:23.000Z</time>
      </trkpt>
      <trkpt lat="45.58674" lon="4.60019">
        <ele>449.39999389648</ele>
        <time>2011-06-12T13:29:37.000Z</time>
      </trkpt>
      <trkpt lat="45.58673" lon="4.60025">
        <ele>449.79998779297</ele>
        <time>2011-06-12T13:29:42.000Z</time>
      </trkpt>
      <trkpt lat="45.58675" lon="4.60052">
        <ele>449.39999389648</ele>
        <time>2011-06-12T13:29:57.000Z</time>
      </trkpt>
      <trkpt lat="45.58676" lon="4.60088">
        <ele>449</ele>
        <time>2011-06-12T13:30:11.000Z</time>
      </trkpt>
      <trkpt lat="45.5868" lon="4.6013">
        <ele>445.79998779297</ele>
        <time>2011-06-12T13:30:28.000Z</time>
      </trkpt>
      <trkpt lat="45.58681" lon="4.60168">
        <ele>443.60000610352</ele>
        <time>2011-06-12T13:30:42.000Z</time>
      </trkpt>
      <trkpt lat="45.5868" lon="4.602">
        <ele>440.39999389648</ele>
        <time>2011-06-12T13:30:58.000Z</time>
      </trkpt>
      <trkpt lat="45.58672" lon="4.60228">
        <ele>439.20001220703</ele>
        <time>2011-06-12T13:31:14.000Z</time>
      </trkpt>
      <trkpt lat="45.58671" lon="4.60232">
        <ele>439</ele>
        <time>2011-06-12T13:31:16.000Z</time>
      </trkpt>
      <trkpt lat="45.58667" lon="4.6024">
        <ele>438.79998779297</ele>
        <time>2011-06-12T13:31:22.000Z</time>
      </trkpt>
      <trkpt lat="45.58656" lon="4.60256">
        <ele>438.60000610352</ele>
        <time>2011-06-12T13:31:33.000Z</time>
      </trkpt>
      <trkpt lat="45.58645" lon="4.60287">
        <ele>434.60000610352</ele>
        <time>2011-06-12T13:31:50.000Z</time>
      </trkpt>
      <trkpt lat="45.58645" lon="4.60291">
        <ele>433.79998779297</ele>
        <time>2011-06-12T13:31:52.000Z</time>
      </trkpt>
      <trkpt lat="45.58638" lon="4.6031">
        <ele>432.20001220703</ele>
        <time>2011-06-12T13:32:03.000Z</time>
      </trkpt>
      <trkpt lat="45.58627" lon="4.60322">
        <ele>432.39999389648</ele>
        <time>2011-06-12T13:32:21.000Z</time>
      </trkpt>
      <trkpt lat="45.58618" lon="4.60342">
        <ele>431.79998779297</ele>
        <time>2011-06-12T13:32:34.000Z</time>
      </trkpt>
      <trkpt lat="45.58614" lon="4.6035">
        <ele>432.20001220703</ele>
        <time>2011-06-12T13:32:39.000Z</time>
      </trkpt>
      <trkpt lat="45.58606" lon="4.60362">
        <ele>433.20001220703</ele>
        <time>2011-06-12T13:32:47.000Z</time>
      </trkpt>
      <trkpt lat="45.58601" lon="4.6037">
        <ele>434</ele>
        <time>2011-06-12T13:32:55.000Z</time>
      </trkpt>
      <trkpt lat="45.58596" lon="4.60383">
        <ele>434</ele>
        <time>2011-06-12T13:33:05.000Z</time>
      </trkpt>
      <trkpt lat="45.58591" lon="4.6039">
        <ele>434.79998779297</ele>
        <time>2011-06-12T13:33:12.000Z</time>
      </trkpt>
      <trkpt lat="45.58589" lon="4.60392">
        <ele>435.20001220703</ele>
        <time>2011-06-12T13:33:14.000Z</time>
      </trkpt>
      <trkpt lat="45.58586" lon="4.60394">
        <ele>435.79998779297</ele>
        <time>2011-06-12T13:33:17.000Z</time>
      </trkpt>
      <trkpt lat="45.58581" lon="4.60403">
        <ele>436</ele>
        <time>2011-06-12T13:33:21.000Z</time>
      </trkpt>
      <trkpt lat="45.58577" lon="4.60432">
        <ele>434</ele>
        <time>2011-06-12T13:33:36.000Z</time>
      </trkpt>
      <trkpt lat="45.58576" lon="4.60439">
        <ele>433.39999389648</ele>
        <time>2011-06-12T13:33:39.000Z</time>
      </trkpt>
      <trkpt lat="45.58572" lon="4.60468">
        <ele>431</ele>
        <time>2011-06-12T13:33:52.000Z</time>
      </trkpt>
      <trkpt lat="45.58572" lon="4.60473">
        <ele>430.39999389648</ele>
        <time>2011-06-12T13:33:54.000Z</time>
      </trkpt>
      <trkpt lat="45.58569" lon="4.6048">
        <ele>430.20001220703</ele>
        <time>2011-06-12T13:33:59.000Z</time>
      </trkpt>
      <trkpt lat="45.58562" lon="4.60509">
        <ele>427.39999389648</ele>
        <time>2011-06-12T13:34:13.000Z</time>
      </trkpt>
      <trkpt lat="45.58555" lon="4.60527">
        <ele>424.79998779297</ele>
        <time>2011-06-12T13:34:26.000Z</time>
      </trkpt>
      <trkpt lat="45.58547" lon="4.6054">
        <ele>423.60000610352</ele>
        <time>2011-06-12T13:34:34.000Z</time>
      </trkpt>
      <trkpt lat="45.58537" lon="4.60549">
        <ele>423.60000610352</ele>
        <time>2011-06-12T13:34:43.000Z</time>
      </trkpt>
      <trkpt lat="45.58541" lon="4.60555">
        <ele>421.60000610352</ele>
        <time>2011-06-12T13:35:04.000Z</time>
      </trkpt>
      <trkpt lat="45.5853" lon="4.60554">
        <ele>424</ele>
        <time>2011-06-12T13:35:11.000Z</time>
      </trkpt>
      <trkpt lat="45.58527" lon="4.60556">
        <ele>424</ele>
        <time>2011-06-12T13:35:20.000Z</time>
      </trkpt>
      <trkpt lat="45.58525" lon="4.6056">
        <ele>423.60000610352</ele>
        <time>2011-06-12T13:35:24.000Z</time>
      </trkpt>
      <trkpt lat="45.58509" lon="4.60575">
        <ele>423.60000610352</ele>
        <time>2011-06-12T13:35:37.000Z</time>
      </trkpt>
      <trkpt lat="45.58503" lon="4.6058">
        <ele>423.79998779297</ele>
        <time>2011-06-12T13:35:44.000Z</time>
      </trkpt>
      <trkpt lat="45.58492" lon="4.6059">
        <ele>422.20001220703</ele>
        <time>2011-06-12T13:35:57.000Z</time>
      </trkpt>
      <trkpt lat="45.58467" lon="4.60601">
        <ele>419.60000610352</ele>
        <time>2011-06-12T13:36:11.000Z</time>
      </trkpt>
      <trkpt lat="45.58454" lon="4.60605">
        <ele>418.79998779297</ele>
        <time>2011-06-12T13:36:20.000Z</time>
      </trkpt>
      <trkpt lat="45.58446" lon="4.60607">
        <ele>418.20001220703</ele>
        <time>2011-06-12T13:36:32.000Z</time>
      </trkpt>
      <trkpt lat="45.58442" lon="4.6061">
        <ele>417.60000610352</ele>
        <time>2011-06-12T13:36:36.000Z</time>
      </trkpt>
      <trkpt lat="45.58418" lon="4.60611">
        <ele>417.20001220703</ele>
        <time>2011-06-12T13:36:55.000Z</time>
      </trkpt>
      <trkpt lat="45.584" lon="4.60609">
        <ele>417.60000610352</ele>
        <time>2011-06-12T13:37:10.000Z</time>
      </trkpt>
      <trkpt lat="45.58392" lon="4.60609">
        <ele>417.39999389648</ele>
        <time>2011-06-12T13:37:17.000Z</time>
      </trkpt>
      <trkpt lat="45.58389" lon="4.6061">
        <ele>417</ele>
        <time>2011-06-12T13:37:19.000Z</time>
      </trkpt>
      <trkpt lat="45.58385" lon="4.6061">
        <ele>417</ele>
        <time>2011-06-12T13:37:24.000Z</time>
      </trkpt>
      <trkpt lat="45.58383" lon="4.60611">
        <ele>416.60000610352</ele>
        <time>2011-06-12T13:37:26.000Z</time>
      </trkpt>
      <trkpt lat="45.58366" lon="4.60612">
        <ele>416</ele>
        <time>2011-06-12T13:37:37.000Z</time>
      </trkpt>
      <trkpt lat="45.58357" lon="4.60614">
        <ele>415.20001220703</ele>
        <time>2011-06-12T13:37:44.000Z</time>
      </trkpt>
      <trkpt lat="45.58341" lon="4.60617">
        <ele>414</ele>
        <time>2011-06-12T13:37:58.000Z</time>
      </trkpt>
      <trkpt lat="45.58318" lon="4.60618">
        <ele>412.60000610352</ele>
        <time>2011-06-12T13:38:12.000Z</time>
      </trkpt>
      <trkpt lat="45.58291" lon="4.60614">
        <ele>412.20001220703</ele>
        <time>2011-06-12T13:38:26.000Z</time>
      </trkpt>
      <trkpt lat="45.58274" lon="4.60614">
        <ele>411.20001220703</ele>
        <time>2011-06-12T13:38:38.000Z</time>
      </trkpt>
      <trkpt lat="45.58264" lon="4.60615">
        <ele>410.39999389648</ele>
        <time>2011-06-12T13:38:46.000Z</time>
      </trkpt>
      <trkpt lat="45.58247" lon="4.60618">
        <ele>408.79998779297</ele>
        <time>2011-06-12T13:39:00.000Z</time>
      </trkpt>
      <trkpt lat="45.58242" lon="4.60612">
        <ele>409.79998779297</ele>
        <time>2011-06-12T13:39:12.000Z</time>
      </trkpt>
      <trkpt lat="45.58237" lon="4.60608">
        <ele>410.20001220703</ele>
        <time>2011-06-12T13:39:17.000Z</time>
      </trkpt>
      <trkpt lat="45.58232" lon="4.60607">
        <ele>410</ele>
        <time>2011-06-12T13:39:22.000Z</time>
      </trkpt>
      <trkpt lat="45.58205" lon="4.60601">
        <ele>409</ele>
        <time>2011-06-12T13:39:40.000Z</time>
      </trkpt>
      <trkpt lat="45.58198" lon="4.60598">
        <ele>408.79998779297</ele>
        <time>2011-06-12T13:39:45.000Z</time>
      </trkpt>
      <trkpt lat="45.5817" lon="4.60583">
        <ele>408.20001220703</ele>
        <time>2011-06-12T13:40:02.000Z</time>
      </trkpt>
      <trkpt lat="45.58151" lon="4.60581">
        <ele>408.79998779297</ele>
        <time>2011-06-12T13:40:17.000Z</time>
      </trkpt>
      <trkpt lat="45.58148" lon="4.6058">
        <ele>409</ele>
        <time>2011-06-12T13:40:19.000Z</time>
      </trkpt>
      <trkpt lat="45.58139" lon="4.60577">
        <ele>409.79998779297</ele>
        <time>2011-06-12T13:40:27.000Z</time>
      </trkpt>
      <trkpt lat="45.58125" lon="4.6058">
        <ele>410.20001220703</ele>
        <time>2011-06-12T13:40:37.000Z</time>
      </trkpt>
      <trkpt lat="45.58102" lon="4.6059">
        <ele>410</ele>
        <time>2011-06-12T13:40:51.000Z</time>
      </trkpt>
      <trkpt lat="45.58092" lon="4.60596">
        <ele>409.79998779297</ele>
        <time>2011-06-12T13:41:05.000Z</time>
      </trkpt>
      <trkpt lat="45.58088" lon="4.60604">
        <ele>408.79998779297</ele>
        <time>2011-06-12T13:41:21.000Z</time>
      </trkpt>
      <trkpt lat="45.58088" lon="4.60604">
        <ele>408.79998779297</ele>
        <time>2011-06-12T13:41:36.000Z</time>
      </trkpt>
      <trkpt lat="45.58088" lon="4.60603">
        <ele>408.79998779297</ele>
        <time>2011-06-12T13:41:54.000Z</time>
      </trkpt>
      <trkpt lat="45.58076" lon="4.60619">
        <ele>407.20001220703</ele>
        <time>2011-06-12T13:42:07.000Z</time>
      </trkpt>
      <trkpt lat="45.58065" lon="4.60634">
        <ele>405.79998779297</ele>
        <time>2011-06-12T13:42:20.000Z</time>
      </trkpt>
      <trkpt lat="45.58059" lon="4.60652">
        <ele>403.79998779297</ele>
        <time>2011-06-12T13:42:33.000Z</time>
      </trkpt>
      <trkpt lat="45.5805" lon="4.60665">
        <ele>402.60000610352</ele>
        <time>2011-06-12T13:42:45.000Z</time>
      </trkpt>
      <trkpt lat="45.58039" lon="4.60676">
        <ele>401.39999389648</ele>
        <time>2011-06-12T13:42:56.000Z</time>
      </trkpt>
      <trkpt lat="45.58027" lon="4.60683">
        <ele>400.79998779297</ele>
        <time>2011-06-12T13:43:06.000Z</time>
      </trkpt>
      <trkpt lat="45.58016" lon="4.60688">
        <ele>400.60000610352</ele>
        <time>2011-06-12T13:43:14.000Z</time>
      </trkpt>
      <trkpt lat="45.58012" lon="4.6069">
        <ele>400.39999389648</ele>
        <time>2011-06-12T13:43:18.000Z</time>
      </trkpt>
      <trkpt lat="45.58009" lon="4.60695">
        <ele>399.60000610352</ele>
        <time>2011-06-12T13:43:22.000Z</time>
      </trkpt>
      <trkpt lat="45.58004" lon="4.60699">
        <ele>399.20001220703</ele>
        <time>2011-06-12T13:43:25.000Z</time>
      </trkpt>
      <trkpt lat="45.57998" lon="4.60702">
        <ele>398.79998779297</ele>
        <time>2011-06-12T13:43:29.000Z</time>
      </trkpt>
      <trkpt lat="45.5799" lon="4.60707">
        <ele>398.20001220703</ele>
        <time>2011-06-12T13:43:35.000Z</time>
      </trkpt>
      <trkpt lat="45.57978" lon="4.60712">
        <ele>397.39999389648</ele>
        <time>2011-06-12T13:43:50.000Z</time>
      </trkpt>
      <trkpt lat="45.57974" lon="4.60714">
        <ele>397.39999389648</ele>
        <time>2011-06-12T13:43:57.000Z</time>
      </trkpt>
      <trkpt lat="45.57973" lon="4.60714">
        <ele>397.39999389648</ele>
        <time>2011-06-12T13:43:59.000Z</time>
      </trkpt>
      <trkpt lat="45.57966" lon="4.60715">
        <ele>397.39999389648</ele>
        <time>2011-06-12T13:44:02.000Z</time>
      </trkpt>
      <trkpt lat="45.57935" lon="4.6072">
        <ele>398</ele>
        <time>2011-06-12T13:44:16.000Z</time>
      </trkpt>
      <trkpt lat="45.57917" lon="4.60723">
        <ele>398.39999389648</ele>
        <time>2011-06-12T13:44:29.000Z</time>
      </trkpt>
      <trkpt lat="45.57897" lon="4.60735">
        <ele>399.60000610352</ele>
        <time>2011-06-12T13:44:44.000Z</time>
      </trkpt>
      <trkpt lat="45.5789" lon="4.60737">
        <ele>400.20001220703</ele>
        <time>2011-06-12T13:44:58.000Z</time>
      </trkpt>
      <trkpt lat="45.57888" lon="4.60734">
        <ele>400.79998779297</ele>
        <time>2011-06-12T13:45:13.000Z</time>
      </trkpt>
      <trkpt lat="45.57883" lon="4.60757">
        <ele>398.79998779297</ele>
        <time>2011-06-12T13:45:29.000Z</time>
      </trkpt>
      <trkpt lat="45.57878" lon="4.60769">
        <ele>397.60000610352</ele>
        <time>2011-06-12T13:45:36.000Z</time>
      </trkpt>
      <trkpt lat="45.57871" lon="4.60777">
        <ele>397.39999389648</ele>
        <time>2011-06-12T13:45:42.000Z</time>
      </trkpt>
      <trkpt lat="45.57866" lon="4.60786">
        <ele>396.79998779297</ele>
        <time>2011-06-12T13:45:47.000Z</time>
      </trkpt>
      <trkpt lat="45.57861" lon="4.60798">
        <ele>396</ele>
        <time>2011-06-12T13:45:54.000Z</time>
      </trkpt>
      <trkpt lat="45.57858" lon="4.60808">
        <ele>395</ele>
        <time>2011-06-12T13:46:00.000Z</time>
      </trkpt>
      <trkpt lat="45.57848" lon="4.60837">
        <ele>392.79998779297</ele>
        <time>2011-06-12T13:46:16.000Z</time>
      </trkpt>
      <trkpt lat="45.57846" lon="4.60837">
        <ele>393.20001220703</ele>
        <time>2011-06-12T13:46:17.000Z</time>
      </trkpt>
      <trkpt lat="45.57839" lon="4.60849">
        <ele>392.39999389648</ele>
        <time>2011-06-12T13:46:28.000Z</time>
      </trkpt>
      <trkpt lat="45.57835" lon="4.60855">
        <ele>392</ele>
        <time>2011-06-12T13:46:33.000Z</time>
      </trkpt>
      <trkpt lat="45.57817" lon="4.60865">
        <ele>392.39999389648</ele>
        <time>2011-06-12T13:46:43.000Z</time>
      </trkpt>
      <trkpt lat="45.57798" lon="4.60873">
        <ele>393.39999389648</ele>
        <time>2011-06-12T13:46:54.000Z</time>
      </trkpt>
      <trkpt lat="45.57786" lon="4.60882">
        <ele>393.39999389648</ele>
        <time>2011-06-12T13:47:05.000Z</time>
      </trkpt>
      <trkpt lat="45.57783" lon="4.60886">
        <ele>393.20001220703</ele>
        <time>2011-06-12T13:47:08.000Z</time>
      </trkpt>
      <trkpt lat="45.57777" lon="4.60894">
        <ele>392.79998779297</ele>
        <time>2011-06-12T13:47:14.000Z</time>
      </trkpt>
      <trkpt lat="45.57769" lon="4.60909">
        <ele>391.60000610352</ele>
        <time>2011-06-12T13:47:22.000Z</time>
      </trkpt>
      <trkpt lat="45.57753" lon="4.60926">
        <ele>391</ele>
        <time>2011-06-12T13:47:36.000Z</time>
      </trkpt>
      <trkpt lat="45.57753" lon="4.60927">
        <ele>390.79998779297</ele>
        <time>2011-06-12T13:47:37.000Z</time>
      </trkpt>
      <trkpt lat="45.57737" lon="4.60947">
        <ele>389.20001220703</ele>
        <time>2011-06-12T13:47:53.000Z</time>
      </trkpt>
      <trkpt lat="45.57725" lon="4.60963">
        <ele>387.79998779297</ele>
        <time>2011-06-12T13:48:06.000Z</time>
      </trkpt>
      <trkpt lat="45.5771" lon="4.60981">
        <ele>386.79998779297</ele>
        <time>2011-06-12T13:48:20.000Z</time>
      </trkpt>
      <trkpt lat="45.57688" lon="4.60993">
        <ele>387.39999389648</ele>
        <time>2011-06-12T13:48:35.000Z</time>
      </trkpt>
      <trkpt lat="45.57672" lon="4.61012">
        <ele>387</ele>
        <time>2011-06-12T13:48:49.000Z</time>
      </trkpt>
      <trkpt lat="45.57656" lon="4.61034">
        <ele>385.79998779297</ele>
        <time>2011-06-12T13:49:03.000Z</time>
      </trkpt>
      <trkpt lat="45.57637" lon="4.61049">
        <ele>385.39999389648</ele>
        <time>2011-06-12T13:49:19.000Z</time>
      </trkpt>
      <trkpt lat="45.57635" lon="4.61049">
        <ele>385.39999389648</ele>
        <time>2011-06-12T13:49:28.000Z</time>
      </trkpt>
      <trkpt lat="45.57627" lon="4.61055">
        <ele>385.20001220703</ele>
        <time>2011-06-12T13:49:36.000Z</time>
      </trkpt>
      <trkpt lat="45.57606" lon="4.61065">
        <ele>385.39999389648</ele>
        <time>2011-06-12T13:49:54.000Z</time>
      </trkpt>
      <trkpt lat="45.57587" lon="4.61073">
        <ele>385.60000610352</ele>
        <time>2011-06-12T13:50:11.000Z</time>
      </trkpt>
      <trkpt lat="45.57568" lon="4.61081">
        <ele>384.39999389648</ele>
        <time>2011-06-12T13:50:26.000Z</time>
      </trkpt>
      <trkpt lat="45.57555" lon="4.6109">
        <ele>383</ele>
        <time>2011-06-12T13:50:41.000Z</time>
      </trkpt>
      <trkpt lat="45.57553" lon="4.6109">
        <ele>383</ele>
        <time>2011-06-12T13:50:46.000Z</time>
      </trkpt>
      <trkpt lat="45.57552" lon="4.61089">
        <ele>383</ele>
        <time>2011-06-12T13:50:53.000Z</time>
      </trkpt>
      <trkpt lat="45.57553" lon="4.61086">
        <ele>383.20001220703</ele>
        <time>2011-06-12T13:51:11.000Z</time>
      </trkpt>
      <trkpt lat="45.57553" lon="4.61088">
        <ele>383.20001220703</ele>
        <time>2011-06-12T13:51:19.000Z</time>
      </trkpt>
      <trkpt lat="45.57554" lon="4.61092">
        <ele>383</ele>
        <time>2011-06-12T13:51:22.000Z</time>
      </trkpt>
      <trkpt lat="45.57556" lon="4.61095">
        <ele>382.79998779297</ele>
        <time>2011-06-12T13:51:25.000Z</time>
      </trkpt>
      <trkpt lat="45.57556" lon="4.61109">
        <ele>382</ele>
        <time>2011-06-12T13:51:39.000Z</time>
      </trkpt>
      <trkpt lat="45.57556" lon="4.61106">
        <ele>382.20001220703</ele>
        <time>2011-06-12T13:51:41.000Z</time>
      </trkpt>
      <trkpt lat="45.57555" lon="4.61093">
        <ele>382.79998779297</ele>
        <time>2011-06-12T13:51:49.000Z</time>
      </trkpt>
      <trkpt lat="45.57553" lon="4.61094">
        <ele>382.79998779297</ele>
        <time>2011-06-12T13:51:57.000Z</time>
      </trkpt>
      <trkpt lat="45.57559" lon="4.61129">
        <ele>380.79998779297</ele>
        <time>2011-06-12T13:52:15.000Z</time>
      </trkpt>
      <trkpt lat="45.57563" lon="4.61156">
        <ele>379.39999389648</ele>
        <time>2011-06-12T13:52:30.000Z</time>
      </trkpt>
      <trkpt lat="45.57564" lon="4.61187">
        <ele>376.79998779297</ele>
        <time>2011-06-12T13:52:46.000Z</time>
      </trkpt>
      <trkpt lat="45.57564" lon="4.6119">
        <ele>376.60000610352</ele>
        <time>2011-06-12T13:52:53.000Z</time>
      </trkpt>
      <trkpt lat="45.57565" lon="4.61194">
        <ele>376.20001220703</ele>
        <time>2011-06-12T13:52:55.000Z</time>
      </trkpt>
      <trkpt lat="45.57568" lon="4.61222">
        <ele>373.79998779297</ele>
        <time>2011-06-12T13:53:11.000Z</time>
      </trkpt>
      <trkpt lat="45.57565" lon="4.61252">
        <ele>370.60000610352</ele>
        <time>2011-06-12T13:53:27.000Z</time>
      </trkpt>
      <trkpt lat="45.57563" lon="4.61258">
        <ele>370</ele>
        <time>2011-06-12T13:53:31.000Z</time>
      </trkpt>
      <trkpt lat="45.57562" lon="4.61271">
        <ele>368.60000610352</ele>
        <time>2011-06-12T13:53:44.000Z</time>
      </trkpt>
      <trkpt lat="45.57564" lon="4.61273">
        <ele>368.39999389648</ele>
        <time>2011-06-12T13:53:47.000Z</time>
      </trkpt>
      <trkpt lat="45.57567" lon="4.61281">
        <ele>367.79998779297</ele>
        <time>2011-06-12T13:53:55.000Z</time>
      </trkpt>
      <trkpt lat="45.57569" lon="4.61289">
        <ele>367.20001220703</ele>
        <time>2011-06-12T13:54:02.000Z</time>
      </trkpt>
      <trkpt lat="45.57576" lon="4.61299">
        <ele>366.60000610352</ele>
        <time>2011-06-12T13:54:11.000Z</time>
      </trkpt>
      <trkpt lat="45.57577" lon="4.61307">
        <ele>366</ele>
        <time>2011-06-12T13:54:15.000Z</time>
      </trkpt>
      <trkpt lat="45.57579" lon="4.61314">
        <ele>365.39999389648</ele>
        <time>2011-06-12T13:54:20.000Z</time>
      </trkpt>
      <trkpt lat="45.57564" lon="4.61328">
        <ele>363.20001220703</ele>
        <time>2011-06-12T13:54:34.000Z</time>
      </trkpt>
      <trkpt lat="45.57557" lon="4.61332">
        <ele>362.20001220703</ele>
        <time>2011-06-12T13:54:40.000Z</time>
      </trkpt>
      <trkpt lat="45.5754" lon="4.61334">
        <ele>360.79998779297</ele>
        <time>2011-06-12T13:54:56.000Z</time>
      </trkpt>
      <trkpt lat="45.57534" lon="4.61334">
        <ele>360.20001220703</ele>
        <time>2011-06-12T13:55:03.000Z</time>
      </trkpt>
      <trkpt lat="45.57531" lon="4.61333">
        <ele>360.20001220703</ele>
        <time>2011-06-12T13:55:18.000Z</time>
      </trkpt>
      <trkpt lat="45.5752" lon="4.61323">
        <ele>360.39999389648</ele>
        <time>2011-06-12T13:55:30.000Z</time>
      </trkpt>
      <trkpt lat="45.57518" lon="4.61321">
        <ele>360.60000610352</ele>
        <time>2011-06-12T13:55:32.000Z</time>
      </trkpt>
      <trkpt lat="45.57514" lon="4.61319">
        <ele>360.39999389648</ele>
        <time>2011-06-12T13:55:46.000Z</time>
      </trkpt>
      <trkpt lat="45.57494" lon="4.61324">
        <ele>359.79998779297</ele>
        <time>2011-06-12T13:55:56.000Z</time>
      </trkpt>
      <trkpt lat="45.57492" lon="4.61322">
        <ele>360.20001220703</ele>
        <time>2011-06-12T13:56:01.000Z</time>
      </trkpt>
      <trkpt lat="45.57494" lon="4.61326">
        <ele>359.39999389648</ele>
        <time>2011-06-12T13:56:09.000Z</time>
      </trkpt>
      <trkpt lat="45.57495" lon="4.61328">
        <ele>359</ele>
        <time>2011-06-12T13:56:12.000Z</time>
      </trkpt>
      <trkpt lat="45.57499" lon="4.6133">
        <ele>358.39999389648</ele>
        <time>2011-06-12T13:56:18.000Z</time>
      </trkpt>
      <trkpt lat="45.57501" lon="4.61332">
        <ele>358.20001220703</ele>
        <time>2011-06-12T13:56:20.000Z</time>
      </trkpt>
      <trkpt lat="45.57511" lon="4.61341">
        <ele>358.20001220703</ele>
        <time>2011-06-12T13:56:34.000Z</time>
      </trkpt>
      <trkpt lat="45.57513" lon="4.61343">
        <ele>358.20001220703</ele>
        <time>2011-06-12T13:56:37.000Z</time>
      </trkpt>
      <trkpt lat="45.57526" lon="4.61356">
        <ele>358</ele>
        <time>2011-06-12T13:56:49.000Z</time>
      </trkpt>
      <trkpt lat="45.57537" lon="4.61369">
        <ele>357.60000610352</ele>
        <time>2011-06-12T13:57:03.000Z</time>
      </trkpt>
      <trkpt lat="45.57538" lon="4.6137">
        <ele>357.39999389648</ele>
        <time>2011-06-12T13:57:06.000Z</time>
      </trkpt>
      <trkpt lat="45.57537" lon="4.61382">
        <ele>356.39999389648</ele>
        <time>2011-06-12T13:57:17.000Z</time>
      </trkpt>
      <trkpt lat="45.57534" lon="4.61389">
        <ele>355.60000610352</ele>
        <time>2011-06-12T13:57:24.000Z</time>
      </trkpt>
      <trkpt lat="45.57529" lon="4.61398">
        <ele>354.79998779297</ele>
        <time>2011-06-12T13:57:35.000Z</time>
      </trkpt>
      <trkpt lat="45.57528" lon="4.614">
        <ele>354.60000610352</ele>
        <time>2011-06-12T13:57:53.000Z</time>
      </trkpt>
      <trkpt lat="45.57523" lon="4.61401">
        <ele>354.39999389648</ele>
        <time>2011-06-12T13:58:13.000Z</time>
      </trkpt>
      <trkpt lat="45.57523" lon="4.61401">
        <ele>354.39999389648</ele>
        <time>2011-06-12T13:58:33.000Z</time>
      </trkpt>
      <trkpt lat="45.57523" lon="4.614">
        <ele>354.39999389648</ele>
        <time>2011-06-12T13:59:01.000Z</time>
      </trkpt>
      <trkpt lat="45.57523" lon="4.61401">
        <ele>354.39999389648</ele>
        <time>2011-06-12T13:59:29.000Z</time>
      </trkpt>
      <trkpt lat="45.57523" lon="4.61401">
        <ele>354.39999389648</ele>
        <time>2011-06-12T14:00:01.000Z</time>
      </trkpt>
      <trkpt lat="45.57523" lon="4.61401">
        <ele>354.39999389648</ele>
        <time>2011-06-12T14:00:20.000Z</time>
      </trkpt>
      <trkpt lat="45.57521" lon="4.61402">
        <ele>354.20001220703</ele>
        <time>2011-06-12T14:00:42.000Z</time>
      </trkpt>
      <trkpt lat="45.57521" lon="4.61402">
        <ele>354.20001220703</ele>
        <time>2011-06-12T14:00:43.000Z</time>
      </trkpt>
      <trkpt lat="45.57521" lon="4.61402">
        <ele>354.20001220703</ele>
        <time>2011-06-12T14:00:44.000Z</time>
      </trkpt>
      <trkpt lat="45.57521" lon="4.61402">
        <ele>354.20001220703</ele>
        <time>2011-06-12T14:01:17.000Z</time>
      </trkpt>
      <trkpt lat="45.57522" lon="4.61403">
        <ele>354.20001220703</ele>
        <time>2011-06-12T14:01:53.000Z</time>
      </trkpt>
      <trkpt lat="45.57521" lon="4.61403">
        <ele>354.20001220703</ele>
        <time>2011-06-12T14:02:20.000Z</time>
      </trkpt>
      <trkpt lat="45.57523" lon="4.61402">
        <ele>354.20001220703</ele>
        <time>2011-06-12T14:02:42.000Z</time>
      </trkpt>
      <trkpt lat="45.57523" lon="4.61402">
        <ele>354.20001220703</ele>
        <time>2011-06-12T14:03:06.000Z</time>
      </trkpt>
      <trkpt lat="45.57523" lon="4.61401">
        <ele>354.39999389648</ele>
        <time>2011-06-12T14:03:23.000Z</time>
      </trkpt>
      <trkpt lat="45.57523" lon="4.61407">
        <ele>354</ele>
        <time>2011-06-12T14:03:35.000Z</time>
      </trkpt>
      <trkpt lat="45.57526" lon="4.61424">
        <ele>353.20001220703</ele>
        <time>2011-06-12T14:03:49.000Z</time>
      </trkpt>
      <trkpt lat="45.57527" lon="4.61433">
        <ele>353.39999389648</ele>
        <time>2011-06-12T14:04:08.000Z</time>
      </trkpt>
      <trkpt lat="45.57527" lon="4.61433">
        <ele>353.39999389648</ele>
        <time>2011-06-12T14:04:33.000Z</time>
      </trkpt>
      <trkpt lat="45.57528" lon="4.61436">
        <ele>353.39999389648</ele>
        <time>2011-06-12T14:04:50.000Z</time>
      </trkpt>
      <trkpt lat="45.5753" lon="4.61444">
        <ele>353.60000610352</ele>
        <time>2011-06-12T14:05:06.000Z</time>
      </trkpt>
      <trkpt lat="45.57529" lon="4.61453">
        <ele>353.60000610352</ele>
        <time>2011-06-12T14:05:09.000Z</time>
      </trkpt>
      <trkpt lat="45.5752" lon="4.6149">
        <ele>353.79998779297</ele>
        <time>2011-06-12T14:05:22.000Z</time>
      </trkpt>
      <trkpt lat="45.57521" lon="4.61493">
        <ele>353.79998779297</ele>
        <time>2011-06-12T14:05:37.000Z</time>
      </trkpt>
      <trkpt lat="45.57532" lon="4.61495">
        <ele>354.39999389648</ele>
        <time>2011-06-12T14:05:48.000Z</time>
      </trkpt>
      <trkpt lat="45.57547" lon="4.61499">
        <ele>355.20001220703</ele>
        <time>2011-06-12T14:05:58.000Z</time>
      </trkpt>
      <trkpt lat="45.57549" lon="4.61499">
        <ele>355.20001220703</ele>
        <time>2011-06-12T14:06:03.000Z</time>
      </trkpt>
      <trkpt lat="45.57557" lon="4.61497">
        <ele>355.60000610352</ele>
        <time>2011-06-12T14:06:15.000Z</time>
      </trkpt>
      <trkpt lat="45.57572" lon="4.61497">
        <ele>356.20001220703</ele>
        <time>2011-06-12T14:06:33.000Z</time>
      </trkpt>
      <trkpt lat="45.57578" lon="4.61498">
        <ele>356.60000610352</ele>
        <time>2011-06-12T14:06:50.000Z</time>
      </trkpt>
      <trkpt lat="45.57581" lon="4.61497">
        <ele>356.60000610352</ele>
        <time>2011-06-12T14:06:54.000Z</time>
      </trkpt>
      <trkpt lat="45.57587" lon="4.615">
        <ele>357.60000610352</ele>
        <time>2011-06-12T14:06:58.000Z</time>
      </trkpt>
      <trkpt lat="45.57593" lon="4.615">
        <ele>358.79998779297</ele>
        <time>2011-06-12T14:07:13.000Z</time>
      </trkpt>
      <trkpt lat="45.57606" lon="4.61504">
        <ele>361.60000610352</ele>
        <time>2011-06-12T14:07:29.000Z</time>
      </trkpt>
      <trkpt lat="45.57615" lon="4.61509">
        <ele>363.60000610352</ele>
        <time>2011-06-12T14:07:45.000Z</time>
      </trkpt>
      <trkpt lat="45.57647" lon="4.61531">
        <ele>369.79998779297</ele>
        <time>2011-06-12T14:08:02.000Z</time>
      </trkpt>
      <trkpt lat="45.57647" lon="4.61531">
        <ele>369.79998779297</ele>
        <time>2011-06-12T14:08:08.000Z</time>
      </trkpt>
      <trkpt lat="45.57652" lon="4.61529">
        <ele>370.60000610352</ele>
        <time>2011-06-12T14:08:22.000Z</time>
      </trkpt>
      <trkpt lat="45.57638" lon="4.61525">
        <ele>368.20001220703</ele>
        <time>2011-06-12T14:08:38.000Z</time>
      </trkpt>
      <trkpt lat="45.57633" lon="4.61523">
        <ele>367.39999389648</ele>
        <time>2011-06-12T14:08:44.000Z</time>
      </trkpt>
      <trkpt lat="45.57618" lon="4.61518">
        <ele>364.79998779297</ele>
        <time>2011-06-12T14:09:01.000Z</time>
      </trkpt>
      <trkpt lat="45.5761" lon="4.61538">
        <ele>364.79998779297</ele>
        <time>2011-06-12T14:09:13.000Z</time>
      </trkpt>
      <trkpt lat="45.57609" lon="4.61538">
        <ele>364.60000610352</ele>
        <time>2011-06-12T14:09:14.000Z</time>
      </trkpt>
      <trkpt lat="45.57595" lon="4.61558">
        <ele>364.60000610352</ele>
        <time>2011-06-12T14:09:26.000Z</time>
      </trkpt>
      <trkpt lat="45.57583" lon="4.61577">
        <ele>365.20001220703</ele>
        <time>2011-06-12T14:09:41.000Z</time>
      </trkpt>
      <trkpt lat="45.57569" lon="4.61596">
        <ele>365.39999389648</ele>
        <time>2011-06-12T14:09:57.000Z</time>
      </trkpt>
      <trkpt lat="45.57562" lon="4.61603">
        <ele>365.20001220703</ele>
        <time>2011-06-12T14:10:04.000Z</time>
      </trkpt>
      <trkpt lat="45.57558" lon="4.6161">
        <ele>365.60000610352</ele>
        <time>2011-06-12T14:10:10.000Z</time>
      </trkpt>
      <trkpt lat="45.57549" lon="4.61634">
        <ele>367.20001220703</ele>
        <time>2011-06-12T14:10:26.000Z</time>
      </trkpt>
      <trkpt lat="45.57546" lon="4.61654">
        <ele>369.60000610352</ele>
        <time>2011-06-12T14:10:38.000Z</time>
      </trkpt>
      <trkpt lat="45.57549" lon="4.61666">
        <ele>372</ele>
        <time>2011-06-12T14:10:47.000Z</time>
      </trkpt>
      <trkpt lat="45.5755" lon="4.61672">
        <ele>372.60000610352</ele>
        <time>2011-06-12T14:10:51.000Z</time>
      </trkpt>
      <trkpt lat="45.57557" lon="4.61695">
        <ele>376</ele>
        <time>2011-06-12T14:11:02.000Z</time>
      </trkpt>
      <trkpt lat="45.57562" lon="4.61703">
        <ele>377.79998779297</ele>
        <time>2011-06-12T14:11:17.000Z</time>
      </trkpt>
      <trkpt lat="45.57566" lon="4.61712">
        <ele>379.20001220703</ele>
        <time>2011-06-12T14:11:21.000Z</time>
      </trkpt>
      <trkpt lat="45.57571" lon="4.61724">
        <ele>381.20001220703</ele>
        <time>2011-06-12T14:11:29.000Z</time>
      </trkpt>
      <trkpt lat="45.57582" lon="4.61739">
        <ele>384.79998779297</ele>
        <time>2011-06-12T14:11:43.000Z</time>
      </trkpt>
      <trkpt lat="45.57591" lon="4.61751">
        <ele>387</ele>
        <time>2011-06-12T14:11:55.000Z</time>
      </trkpt>
      <trkpt lat="45.5759" lon="4.61762">
        <ele>387.20001220703</ele>
        <time>2011-06-12T14:12:12.000Z</time>
      </trkpt>
      <trkpt lat="45.5759" lon="4.61762">
        <ele>387.20001220703</ele>
        <time>2011-06-12T14:12:31.000Z</time>
      </trkpt>
      <trkpt lat="45.57597" lon="4.61782">
        <ele>389</ele>
        <time>2011-06-12T14:12:59.000Z</time>
      </trkpt>
      <trkpt lat="45.57595" lon="4.61782">
        <ele>388.79998779297</ele>
        <time>2011-06-12T14:13:06.000Z</time>
      </trkpt>
      <trkpt lat="45.5759" lon="4.61789">
        <ele>388.60000610352</ele>
        <time>2011-06-12T14:13:11.000Z</time>
      </trkpt>
      <trkpt lat="45.57566" lon="4.61813">
        <ele>384.60000610352</ele>
        <time>2011-06-12T14:13:30.000Z</time>
      </trkpt>
      <trkpt lat="45.57554" lon="4.61824">
        <ele>381.79998779297</ele>
        <time>2011-06-12T14:13:43.000Z</time>
      </trkpt>
      <trkpt lat="45.57552" lon="4.61832">
        <ele>381.39999389648</ele>
        <time>2011-06-12T14:13:51.000Z</time>
      </trkpt>
      <trkpt lat="45.57544" lon="4.61831">
        <ele>379.39999389648</ele>
        <time>2011-06-12T14:14:06.000Z</time>
      </trkpt>
      <trkpt lat="45.57543" lon="4.6183">
        <ele>379.20001220703</ele>
        <time>2011-06-12T14:14:07.000Z</time>
      </trkpt>
      <trkpt lat="45.57539" lon="4.61821">
        <ele>377.79998779297</ele>
        <time>2011-06-12T14:14:15.000Z</time>
      </trkpt>
      <trkpt lat="45.57535" lon="4.61811">
        <ele>376.60000610352</ele>
        <time>2011-06-12T14:14:26.000Z</time>
      </trkpt>
      <trkpt lat="45.57536" lon="4.61804">
        <ele>376.39999389648</ele>
        <time>2011-06-12T14:14:29.000Z</time>
      </trkpt>
      <trkpt lat="45.5752" lon="4.61787">
        <ele>372.39999389648</ele>
        <time>2011-06-12T14:14:43.000Z</time>
      </trkpt>
      <trkpt lat="45.57517" lon="4.61783">
        <ele>371.39999389648</ele>
        <time>2011-06-12T14:14:46.000Z</time>
      </trkpt>
      <trkpt lat="45.57513" lon="4.61778">
        <ele>370.39999389648</ele>
        <time>2011-06-12T14:14:51.000Z</time>
      </trkpt>
      <trkpt lat="45.57502" lon="4.61763">
        <ele>367.60000610352</ele>
        <time>2011-06-12T14:15:02.000Z</time>
      </trkpt>
      <trkpt lat="45.57502" lon="4.61759">
        <ele>367.60000610352</ele>
        <time>2011-06-12T14:15:04.000Z</time>
      </trkpt>
      <trkpt lat="45.57501" lon="4.61749">
        <ele>367</ele>
        <time>2011-06-12T14:15:19.000Z</time>
      </trkpt>
      <trkpt lat="45.57501" lon="4.61749">
        <ele>367</ele>
        <time>2011-06-12T14:15:21.000Z</time>
      </trkpt>
      <trkpt lat="45.57498" lon="4.61745">
        <ele>366</ele>
        <time>2011-06-12T14:15:39.000Z</time>
      </trkpt>
      <trkpt lat="45.57498" lon="4.61742">
        <ele>365.79998779297</ele>
        <time>2011-06-12T14:15:40.000Z</time>
      </trkpt>
      <trkpt lat="45.57496" lon="4.61725">
        <ele>364.20001220703</ele>
        <time>2011-06-12T14:15:46.000Z</time>
      </trkpt>
      <trkpt lat="45.57496" lon="4.61721">
        <ele>363.79998779297</ele>
        <time>2011-06-12T14:16:10.000Z</time>
      </trkpt>
      <trkpt lat="45.57495" lon="4.61721">
        <ele>363.60000610352</ele>
        <time>2011-06-12T14:16:43.000Z</time>
      </trkpt>
      <trkpt lat="45.57495" lon="4.6172">
        <ele>363.39999389648</ele>
        <time>2011-06-12T14:17:13.000Z</time>
      </trkpt>
      <trkpt lat="45.57495" lon="4.6172">
        <ele>363.39999389648</ele>
        <time>2011-06-12T14:17:47.000Z</time>
      </trkpt>
      <trkpt lat="45.57495" lon="4.61718">
        <ele>363.39999389648</ele>
        <time>2011-06-12T14:18:19.000Z</time>
      </trkpt>
      <trkpt lat="45.57495" lon="4.61717">
        <ele>363.39999389648</ele>
        <time>2011-06-12T14:18:53.000Z</time>
      </trkpt>
      <trkpt lat="45.57495" lon="4.61716">
        <ele>363.20001220703</ele>
        <time>2011-06-12T14:19:26.000Z</time>
      </trkpt>
      <trkpt lat="45.57495" lon="4.61716">
        <ele>363.39999389648</ele>
        <time>2011-06-12T14:19:56.000Z</time>
      </trkpt>
      <trkpt lat="45.57495" lon="4.61716">
        <ele>363.39999389648</ele>
        <time>2011-06-12T14:20:32.000Z</time>
      </trkpt>
      <trkpt lat="45.57495" lon="4.61716">
        <ele>363.39999389648</ele>
        <time>2011-06-12T14:21:01.000Z</time>
      </trkpt>
      <trkpt lat="45.57496" lon="4.61716">
        <ele>363.39999389648</ele>
        <time>2011-06-12T14:21:27.000Z</time>
      </trkpt>
      <trkpt lat="45.57496" lon="4.61716">
        <ele>363.39999389648</ele>
        <time>2011-06-12T14:21:55.000Z</time>
      </trkpt>
      <trkpt lat="45.57496" lon="4.61706">
        <ele>362.79998779297</ele>
        <time>2011-06-12T14:22:05.000Z</time>
      </trkpt>
      <trkpt lat="45.57501" lon="4.61702">
        <ele>363.79998779297</ele>
        <time>2011-06-12T14:22:25.000Z</time>
      </trkpt>
      <trkpt lat="45.57503" lon="4.61703">
        <ele>364.20001220703</ele>
        <time>2011-06-12T14:22:26.000Z</time>
      </trkpt>
      <trkpt lat="45.57514" lon="4.61714">
        <ele>367.39999389648</ele>
        <time>2011-06-12T14:22:43.000Z</time>
      </trkpt>
      <trkpt lat="45.57515" lon="4.6172">
        <ele>368</ele>
        <time>2011-06-12T14:22:49.000Z</time>
      </trkpt>
      <trkpt lat="45.57508" lon="4.61729">
        <ele>367.39999389648</ele>
        <time>2011-06-12T14:23:05.000Z</time>
      </trkpt>
      <trkpt lat="45.57512" lon="4.61744">
        <ele>369.20001220703</ele>
        <time>2011-06-12T14:23:19.000Z</time>
      </trkpt>
      <trkpt lat="45.57515" lon="4.61756">
        <ele>370.39999389648</ele>
        <time>2011-06-12T14:23:27.000Z</time>
      </trkpt>
      <trkpt lat="45.57521" lon="4.61781">
        <ele>372.20001220703</ele>
        <time>2011-06-12T14:23:42.000Z</time>
      </trkpt>
      <trkpt lat="45.57529" lon="4.61798">
        <ele>374.79998779297</ele>
        <time>2011-06-12T14:23:58.000Z</time>
      </trkpt>
      <trkpt lat="45.57537" lon="4.6182">
        <ele>377.39999389648</ele>
        <time>2011-06-12T14:24:13.000Z</time>
      </trkpt>
      <trkpt lat="45.57543" lon="4.61831">
        <ele>379.20001220703</ele>
        <time>2011-06-12T14:24:26.000Z</time>
      </trkpt>
      <trkpt lat="45.57544" lon="4.61831">
        <ele>379.39999389648</ele>
        <time>2011-06-12T14:24:47.000Z</time>
      </trkpt>
      <trkpt lat="45.57556" lon="4.61851">
        <ele>384.20001220703</ele>
        <time>2011-06-12T14:25:03.000Z</time>
      </trkpt>
      <trkpt lat="45.57561" lon="4.61872">
        <ele>387</ele>
        <time>2011-06-12T14:25:17.000Z</time>
      </trkpt>
      <trkpt lat="45.57562" lon="4.61885">
        <ele>388.39999389648</ele>
        <time>2011-06-12T14:25:25.000Z</time>
      </trkpt>
      <trkpt lat="45.57563" lon="4.61904">
        <ele>390.20001220703</ele>
        <time>2011-06-12T14:25:38.000Z</time>
      </trkpt>
      <trkpt lat="45.57563" lon="4.61906">
        <ele>390.20001220703</ele>
        <time>2011-06-12T14:25:39.000Z</time>
      </trkpt>
      <trkpt lat="45.57565" lon="4.61932">
        <ele>393.60000610352</ele>
        <time>2011-06-12T14:25:55.000Z</time>
      </trkpt>
      <trkpt lat="45.57564" lon="4.61953">
        <ele>396.20001220703</ele>
        <time>2011-06-12T14:26:08.000Z</time>
      </trkpt>
      <trkpt lat="45.57565" lon="4.61955">
        <ele>396.60000610352</ele>
        <time>2011-06-12T14:26:10.000Z</time>
      </trkpt>
      <trkpt lat="45.57564" lon="4.61978">
        <ele>399.60000610352</ele>
        <time>2011-06-12T14:26:26.000Z</time>
      </trkpt>
      <trkpt lat="45.57565" lon="4.61987">
        <ele>401</ele>
        <time>2011-06-12T14:26:32.000Z</time>
      </trkpt>
      <trkpt lat="45.57564" lon="4.61993">
        <ele>401.60000610352</ele>
        <time>2011-06-12T14:26:51.000Z</time>
      </trkpt>
      <trkpt lat="45.57565" lon="4.61998">
        <ele>402.60000610352</ele>
        <time>2011-06-12T14:27:01.000Z</time>
      </trkpt>
      <trkpt lat="45.57573" lon="4.62024">
        <ele>406.20001220703</ele>
        <time>2011-06-12T14:27:16.000Z</time>
      </trkpt>
      <trkpt lat="45.57576" lon="4.62032">
        <ele>407.20001220703</ele>
        <time>2011-06-12T14:27:22.000Z</time>
      </trkpt>
      <trkpt lat="45.5759" lon="4.62052">
        <ele>410.20001220703</ele>
        <time>2011-06-12T14:27:38.000Z</time>
      </trkpt>
      <trkpt lat="45.57599" lon="4.62062">
        <ele>411.60000610352</ele>
        <time>2011-06-12T14:27:48.000Z</time>
      </trkpt>
      <trkpt lat="45.57602" lon="4.62068">
        <ele>412.39999389648</ele>
        <time>2011-06-12T14:27:52.000Z</time>
      </trkpt>
      <trkpt lat="45.57606" lon="4.62084">
        <ele>414</ele>
        <time>2011-06-12T14:28:01.000Z</time>
      </trkpt>
      <trkpt lat="45.57606" lon="4.62091">
        <ele>414.39999389648</ele>
        <time>2011-06-12T14:28:05.000Z</time>
      </trkpt>
      <trkpt lat="45.57602" lon="4.62111">
        <ele>415.39999389648</ele>
        <time>2011-06-12T14:28:20.000Z</time>
      </trkpt>
      <trkpt lat="45.57602" lon="4.62112">
        <ele>415.39999389648</ele>
        <time>2011-06-12T14:28:23.000Z</time>
      </trkpt>
      <trkpt lat="45.57602" lon="4.62117">
        <ele>415.79998779297</ele>
        <time>2011-06-12T14:28:25.000Z</time>
      </trkpt>
      <trkpt lat="45.576" lon="4.62126">
        <ele>416.20001220703</ele>
        <time>2011-06-12T14:28:30.000Z</time>
      </trkpt>
      <trkpt lat="45.57598" lon="4.6214">
        <ele>416.79998779297</ele>
        <time>2011-06-12T14:28:45.000Z</time>
      </trkpt>
      <trkpt lat="45.57597" lon="4.62142">
        <ele>416.79998779297</ele>
        <time>2011-06-12T14:28:57.000Z</time>
      </trkpt>
      <trkpt lat="45.57597" lon="4.62142">
        <ele>416.79998779297</ele>
        <time>2011-06-12T14:29:12.000Z</time>
      </trkpt>
      <trkpt lat="45.57596" lon="4.6217">
        <ele>418.20001220703</ele>
        <time>2011-06-12T14:29:27.000Z</time>
      </trkpt>
      <trkpt lat="45.57597" lon="4.62187">
        <ele>419.20001220703</ele>
        <time>2011-06-12T14:29:38.000Z</time>
      </trkpt>
      <trkpt lat="45.57601" lon="4.62185">
        <ele>419.60000610352</ele>
        <time>2011-06-12T14:29:43.000Z</time>
      </trkpt>
      <trkpt lat="45.57601" lon="4.62183">
        <ele>419.39999389648</ele>
        <time>2011-06-12T14:29:50.000Z</time>
      </trkpt>
      <trkpt lat="45.5759" lon="4.62214">
        <ele>419.79998779297</ele>
        <time>2011-06-12T14:30:09.000Z</time>
      </trkpt>
      <trkpt lat="45.57579" lon="4.62249">
        <ele>420.39999389648</ele>
        <time>2011-06-12T14:30:28.000Z</time>
      </trkpt>
      <trkpt lat="45.57571" lon="4.6228">
        <ele>420.20001220703</ele>
        <time>2011-06-12T14:30:45.000Z</time>
      </trkpt>
      <trkpt lat="45.57564" lon="4.62309">
        <ele>420.39999389648</ele>
        <time>2011-06-12T14:31:02.000Z</time>
      </trkpt>
      <trkpt lat="45.57555" lon="4.62343">
        <ele>420.60000610352</ele>
        <time>2011-06-12T14:31:22.000Z</time>
      </trkpt>
      <trkpt lat="45.57546" lon="4.62377">
        <ele>421</ele>
        <time>2011-06-12T14:31:41.000Z</time>
      </trkpt>
      <trkpt lat="45.57539" lon="4.62408">
        <ele>421.39999389648</ele>
        <time>2011-06-12T14:31:59.000Z</time>
      </trkpt>
      <trkpt lat="45.57537" lon="4.62439">
        <ele>421</ele>
        <time>2011-06-12T14:32:17.000Z</time>
      </trkpt>
      <trkpt lat="45.5754" lon="4.62464">
        <ele>420.60000610352</ele>
        <time>2011-06-12T14:32:33.000Z</time>
      </trkpt>
      <trkpt lat="45.57547" lon="4.62493">
        <ele>420.79998779297</ele>
        <time>2011-06-12T14:32:49.000Z</time>
      </trkpt>
      <trkpt lat="45.57554" lon="4.62523">
        <ele>420.39999389648</ele>
        <time>2011-06-12T14:33:06.000Z</time>
      </trkpt>
      <trkpt lat="45.57562" lon="4.62546">
        <ele>420.60000610352</ele>
        <time>2011-06-12T14:33:20.000Z</time>
      </trkpt>
      <trkpt lat="45.57569" lon="4.62571">
        <ele>420.39999389648</ele>
        <time>2011-06-12T14:33:36.000Z</time>
      </trkpt>
      <trkpt lat="45.57572" lon="4.62578">
        <ele>420.60000610352</ele>
        <time>2011-06-12T14:33:41.000Z</time>
      </trkpt>
      <trkpt lat="45.5757" lon="4.6259">
        <ele>420</ele>
        <time>2011-06-12T14:33:55.000Z</time>
      </trkpt>
      <trkpt lat="45.57569" lon="4.62592">
        <ele>419.79998779297</ele>
        <time>2011-06-12T14:33:57.000Z</time>
      </trkpt>
      <trkpt lat="45.57562" lon="4.62591">
        <ele>419</ele>
        <time>2011-06-12T14:34:06.000Z</time>
      </trkpt>
      <trkpt lat="45.57559" lon="4.62589">
        <ele>418.60000610352</ele>
        <time>2011-06-12T14:34:09.000Z</time>
      </trkpt>
      <trkpt lat="45.57546" lon="4.62577">
        <ele>417.20001220703</ele>
        <time>2011-06-12T14:34:24.000Z</time>
      </trkpt>
      <trkpt lat="45.57542" lon="4.62572">
        <ele>417</ele>
        <time>2011-06-12T14:34:39.000Z</time>
      </trkpt>
      <trkpt lat="45.57521" lon="4.62556">
        <ele>415</ele>
        <time>2011-06-12T14:34:58.000Z</time>
      </trkpt>
      <trkpt lat="45.57517" lon="4.62553">
        <ele>414.60000610352</ele>
        <time>2011-06-12T14:35:11.000Z</time>
      </trkpt>
      <trkpt lat="45.57501" lon="4.62541">
        <ele>413</ele>
        <time>2011-06-12T14:35:27.000Z</time>
      </trkpt>
      <trkpt lat="45.57478" lon="4.62535">
        <ele>411.60000610352</ele>
        <time>2011-06-12T14:35:43.000Z</time>
      </trkpt>
      <trkpt lat="45.57455" lon="4.62531">
        <ele>410</ele>
        <time>2011-06-12T14:36:00.000Z</time>
      </trkpt>
      <trkpt lat="45.57454" lon="4.62529">
        <ele>410</ele>
        <time>2011-06-12T14:36:02.000Z</time>
      </trkpt>
      <trkpt lat="45.57442" lon="4.62511">
        <ele>410</ele>
        <time>2011-06-12T14:36:15.000Z</time>
      </trkpt>
      <trkpt lat="45.5742" lon="4.62498">
        <ele>409.20001220703</ele>
        <time>2011-06-12T14:36:30.000Z</time>
      </trkpt>
      <trkpt lat="45.57409" lon="4.62488">
        <ele>408.39999389648</ele>
        <time>2011-06-12T14:36:39.000Z</time>
      </trkpt>
      <trkpt lat="45.57403" lon="4.62482">
        <ele>408</ele>
        <time>2011-06-12T14:36:43.000Z</time>
      </trkpt>
      <trkpt lat="45.57381" lon="4.62479">
        <ele>406.60000610352</ele>
        <time>2011-06-12T14:37:00.000Z</time>
      </trkpt>
      <trkpt lat="45.57358" lon="4.62482">
        <ele>405.20001220703</ele>
        <time>2011-06-12T14:37:17.000Z</time>
      </trkpt>
      <trkpt lat="45.57336" lon="4.62482">
        <ele>403.79998779297</ele>
        <time>2011-06-12T14:37:33.000Z</time>
      </trkpt>
      <trkpt lat="45.5731" lon="4.62479">
        <ele>400.79998779297</ele>
        <time>2011-06-12T14:37:53.000Z</time>
      </trkpt>
      <trkpt lat="45.57287" lon="4.62477">
        <ele>397.79998779297</ele>
        <time>2011-06-12T14:38:11.000Z</time>
      </trkpt>
      <trkpt lat="45.5728" lon="4.62478">
        <ele>397</ele>
        <time>2011-06-12T14:38:16.000Z</time>
      </trkpt>
      <trkpt lat="45.57259" lon="4.62479">
        <ele>394.60000610352</ele>
        <time>2011-06-12T14:38:33.000Z</time>
      </trkpt>
      <trkpt lat="45.57251" lon="4.62478">
        <ele>393.60000610352</ele>
        <time>2011-06-12T14:38:40.000Z</time>
      </trkpt>
      <trkpt lat="45.5723" lon="4.62481">
        <ele>389.39999389648</ele>
        <time>2011-06-12T14:38:57.000Z</time>
      </trkpt>
      <trkpt lat="45.57208" lon="4.62484">
        <ele>384.79998779297</ele>
        <time>2011-06-12T14:39:14.000Z</time>
      </trkpt>
      <trkpt lat="45.57199" lon="4.62483">
        <ele>382.79998779297</ele>
        <time>2011-06-12T14:39:27.000Z</time>
      </trkpt>
      <trkpt lat="45.57187" lon="4.62483">
        <ele>380.20001220703</ele>
        <time>2011-06-12T14:39:42.000Z</time>
      </trkpt>
      <trkpt lat="45.57177" lon="4.62482">
        <ele>378.20001220703</ele>
        <time>2011-06-12T14:39:53.000Z</time>
      </trkpt>
      <trkpt lat="45.57169" lon="4.62481">
        <ele>376.39999389648</ele>
        <time>2011-06-12T14:40:01.000Z</time>
      </trkpt>
      <trkpt lat="45.57155" lon="4.62485">
        <ele>373</ele>
        <time>2011-06-12T14:40:16.000Z</time>
      </trkpt>
      <trkpt lat="45.57154" lon="4.62485">
        <ele>372.79998779297</ele>
        <time>2011-06-12T14:40:19.000Z</time>
      </trkpt>
      <trkpt lat="45.5715" lon="4.62484">
        <ele>371.79998779297</ele>
        <time>2011-06-12T14:40:23.000Z</time>
      </trkpt>
      <trkpt lat="45.5714" lon="4.62485">
        <ele>369.20001220703</ele>
        <time>2011-06-12T14:40:36.000Z</time>
      </trkpt>
      <trkpt lat="45.57137" lon="4.62485">
        <ele>368.39999389648</ele>
        <time>2011-06-12T14:40:40.000Z</time>
      </trkpt>
      <trkpt lat="45.57134" lon="4.62484">
        <ele>367.39999389648</ele>
        <time>2011-06-12T14:40:43.000Z</time>
      </trkpt>
      <trkpt lat="45.57126" lon="4.62482">
        <ele>365.20001220703</ele>
        <time>2011-06-12T14:40:58.000Z</time>
      </trkpt>
      <trkpt lat="45.57117" lon="4.62486">
        <ele>363.20001220703</ele>
        <time>2011-06-12T14:41:04.000Z</time>
      </trkpt>
      <trkpt lat="45.5711" lon="4.62488">
        <ele>361.60000610352</ele>
        <time>2011-06-12T14:41:15.000Z</time>
      </trkpt>
      <trkpt lat="45.57105" lon="4.62494">
        <ele>360.79998779297</ele>
        <time>2011-06-12T14:41:21.000Z</time>
      </trkpt>
      <trkpt lat="45.57103" lon="4.62497">
        <ele>360.60000610352</ele>
        <time>2011-06-12T14:41:23.000Z</time>
      </trkpt>
      <trkpt lat="45.57103" lon="4.62498">
        <ele>360.60000610352</ele>
        <time>2011-06-12T14:41:24.000Z</time>
      </trkpt>
      <trkpt lat="45.57099" lon="4.62504">
        <ele>359.60000610352</ele>
        <time>2011-06-12T14:41:31.000Z</time>
      </trkpt>
      <trkpt lat="45.57095" lon="4.62524">
        <ele>358</ele>
        <time>2011-06-12T14:41:40.000Z</time>
      </trkpt>
      <trkpt lat="45.57093" lon="4.62529">
        <ele>357.20001220703</ele>
        <time>2011-06-12T14:41:50.000Z</time>
      </trkpt>
      <trkpt lat="45.57092" lon="4.62535">
        <ele>356.79998779297</ele>
        <time>2011-06-12T14:41:53.000Z</time>
      </trkpt>
      <trkpt lat="45.5709" lon="4.62542">
        <ele>356</ele>
        <time>2011-06-12T14:42:07.000Z</time>
      </trkpt>
      <trkpt lat="45.57091" lon="4.62544">
        <ele>356</ele>
        <time>2011-06-12T14:42:15.000Z</time>
      </trkpt>
      <trkpt lat="45.57093" lon="4.62548">
        <ele>356.39999389648</ele>
        <time>2011-06-12T14:42:26.000Z</time>
      </trkpt>
      <trkpt lat="45.57091" lon="4.62546">
        <ele>356.20001220703</ele>
        <time>2011-06-12T14:42:51.000Z</time>
      </trkpt>
      <trkpt lat="45.57095" lon="4.62556">
        <ele>356.60000610352</ele>
        <time>2011-06-12T14:43:04.000Z</time>
      </trkpt>
      <trkpt lat="45.57095" lon="4.62556">
        <ele>356.60000610352</ele>
        <time>2011-06-12T14:43:05.000Z</time>
      </trkpt>
      <trkpt lat="45.57095" lon="4.62556">
        <ele>356.60000610352</ele>
        <time>2011-06-12T14:43:24.000Z</time>
      </trkpt>
      <trkpt lat="45.57095" lon="4.62556">
        <ele>356.60000610352</ele>
        <time>2011-06-12T14:43:29.000Z</time>
      </trkpt>
      <trkpt lat="45.57103" lon="4.62572">
        <ele>358</ele>
        <time>2011-06-12T14:43:45.000Z</time>
      </trkpt>
      <trkpt lat="45.571" lon="4.62568">
        <ele>357.39999389648</ele>
        <time>2011-06-12T14:44:02.000Z</time>
      </trkpt>
      <trkpt lat="45.5708" lon="4.62592">
        <ele>353.39999389648</ele>
        <time>2011-06-12T14:44:18.000Z</time>
      </trkpt>
      <trkpt lat="45.5708" lon="4.62592">
        <ele>353.39999389648</ele>
        <time>2011-06-12T14:44:36.000Z</time>
      </trkpt>
      <trkpt lat="45.57081" lon="4.62591">
        <ele>353.39999389648</ele>
        <time>2011-06-12T14:45:06.000Z</time>
      </trkpt>
      <trkpt lat="45.57082" lon="4.6259">
        <ele>353.39999389648</ele>
        <time>2011-06-12T14:45:42.000Z</time>
      </trkpt>
      <trkpt lat="45.57082" lon="4.6259">
        <ele>353.39999389648</ele>
        <time>2011-06-12T14:46:13.000Z</time>
      </trkpt>
      <trkpt lat="45.57074" lon="4.6257">
        <ele>352</ele>
        <time>2011-06-12T14:46:25.000Z</time>
      </trkpt>
      <trkpt lat="45.5708" lon="4.62571">
        <ele>352.79998779297</ele>
        <time>2011-06-12T14:46:39.000Z</time>
      </trkpt>
      <trkpt lat="45.57084" lon="4.62573">
        <ele>353.39999389648</ele>
        <time>2011-06-12T14:46:46.000Z</time>
      </trkpt>
      <trkpt lat="45.57088" lon="4.62574">
        <ele>354.20001220703</ele>
        <time>2011-06-12T14:46:58.000Z</time>
      </trkpt>
      <trkpt lat="45.57099" lon="4.6258">
        <ele>356.60000610352</ele>
        <time>2011-06-12T14:47:12.000Z</time>
      </trkpt>
      <trkpt lat="45.57108" lon="4.6259">
        <ele>359</ele>
        <time>2011-06-12T14:47:26.000Z</time>
      </trkpt>
      <trkpt lat="45.57115" lon="4.62595">
        <ele>360.79998779297</ele>
        <time>2011-06-12T14:47:33.000Z</time>
      </trkpt>
      <trkpt lat="45.57117" lon="4.62596">
        <ele>361.20001220703</ele>
        <time>2011-06-12T14:47:35.000Z</time>
      </trkpt>
      <trkpt lat="45.57119" lon="4.62598">
        <ele>361.79998779297</ele>
        <time>2011-06-12T14:47:41.000Z</time>
      </trkpt>
      <trkpt lat="45.57123" lon="4.62608">
        <ele>362.79998779297</ele>
        <time>2011-06-12T14:47:57.000Z</time>
      </trkpt>
      <trkpt lat="45.5712" lon="4.62606">
        <ele>362.39999389648</ele>
        <time>2011-06-12T14:48:12.000Z</time>
      </trkpt>
      <trkpt lat="45.57121" lon="4.62605">
        <ele>362.39999389648</ele>
        <time>2011-06-12T14:48:27.000Z</time>
      </trkpt>
      <trkpt lat="45.5723" lon="4.62694">
        <ele>376</ele>
        <time>2011-06-12T14:48:47.000Z</time>
      </trkpt>
      <trkpt lat="45.57227" lon="4.62689">
        <ele>375.79998779297</ele>
        <time>2011-06-12T14:48:54.000Z</time>
      </trkpt>
      <trkpt lat="45.57222" lon="4.62689">
        <ele>375.39999389648</ele>
        <time>2011-06-12T14:48:59.000Z</time>
      </trkpt>
      <trkpt lat="45.57221" lon="4.62686">
        <ele>375.39999389648</ele>
        <time>2011-06-12T14:49:21.000Z</time>
      </trkpt>
      <trkpt lat="45.57217" lon="4.62685">
        <ele>375</ele>
        <time>2011-06-12T14:49:39.000Z</time>
      </trkpt>
      <trkpt lat="45.57217" lon="4.62685">
        <ele>375</ele>
        <time>2011-06-12T14:49:50.000Z</time>
      </trkpt>
      <trkpt lat="45.57218" lon="4.62686">
        <ele>375.20001220703</ele>
        <time>2011-06-12T14:50:04.000Z</time>
      </trkpt>
      <trkpt lat="45.57221" lon="4.62689">
        <ele>375.39999389648</ele>
        <time>2011-06-12T14:50:19.000Z</time>
      </trkpt>
      <trkpt lat="45.57229" lon="4.62691">
        <ele>376</ele>
        <time>2011-06-12T14:50:31.000Z</time>
      </trkpt>
      <trkpt lat="45.57236" lon="4.62692">
        <ele>376.60000610352</ele>
        <time>2011-06-12T14:50:45.000Z</time>
      </trkpt>
      <trkpt lat="45.57254" lon="4.62701">
        <ele>377.79998779297</ele>
        <time>2011-06-12T14:50:57.000Z</time>
      </trkpt>
      <trkpt lat="45.57256" lon="4.62702">
        <ele>378</ele>
        <time>2011-06-12T14:50:59.000Z</time>
      </trkpt>
      <trkpt lat="45.57275" lon="4.62707">
        <ele>380</ele>
        <time>2011-06-12T14:51:17.000Z</time>
      </trkpt>
      <trkpt lat="45.5728" lon="4.62706">
        <ele>380.60000610352</ele>
        <time>2011-06-12T14:51:36.000Z</time>
      </trkpt>
      <trkpt lat="45.5728" lon="4.62706">
        <ele>380.60000610352</ele>
        <time>2011-06-12T14:51:59.000Z</time>
      </trkpt>
      <trkpt lat="45.5728" lon="4.62706">
        <ele>380.60000610352</ele>
        <time>2011-06-12T14:52:22.000Z</time>
      </trkpt>
      <trkpt lat="45.57286" lon="4.62715">
        <ele>380.79998779297</ele>
        <time>2011-06-12T14:52:43.000Z</time>
      </trkpt>
      <trkpt lat="45.57295" lon="4.62714">
        <ele>382</ele>
        <time>2011-06-12T14:53:03.000Z</time>
      </trkpt>
      <trkpt lat="45.57296" lon="4.62714">
        <ele>382.20001220703</ele>
        <time>2011-06-12T14:53:04.000Z</time>
      </trkpt>
      <trkpt lat="45.57301" lon="4.62713">
        <ele>382.79998779297</ele>
        <time>2011-06-12T14:53:18.000Z</time>
      </trkpt>
      <trkpt lat="45.57314" lon="4.62711">
        <ele>384.39999389648</ele>
        <time>2011-06-12T14:53:33.000Z</time>
      </trkpt>
      <trkpt lat="45.5732" lon="4.62715">
        <ele>385</ele>
        <time>2011-06-12T14:53:40.000Z</time>
      </trkpt>
      <trkpt lat="45.57331" lon="4.6272">
        <ele>386</ele>
        <time>2011-06-12T14:53:54.000Z</time>
      </trkpt>
      <trkpt lat="45.57331" lon="4.62724">
        <ele>385.79998779297</ele>
        <time>2011-06-12T14:53:57.000Z</time>
      </trkpt>
      <trkpt lat="45.57329" lon="4.6275">
        <ele>384.39999389648</ele>
        <time>2011-06-12T14:54:13.000Z</time>
      </trkpt>
      <trkpt lat="45.57327" lon="4.62764">
        <ele>384.79998779297</ele>
        <time>2011-06-12T14:54:22.000Z</time>
      </trkpt>
      <trkpt lat="45.57336" lon="4.62782">
        <ele>386.39999389648</ele>
        <time>2011-06-12T14:54:37.000Z</time>
      </trkpt>
      <trkpt lat="45.57336" lon="4.62783">
        <ele>386.60000610352</ele>
        <time>2011-06-12T14:54:54.000Z</time>
      </trkpt>
      <trkpt lat="45.57335" lon="4.62782">
        <ele>386.20001220703</ele>
        <time>2011-06-12T14:55:15.000Z</time>
      </trkpt>
      <trkpt lat="45.57335" lon="4.62782">
        <ele>386.39999389648</ele>
        <time>2011-06-12T14:55:30.000Z</time>
      </trkpt>
      <trkpt lat="45.5734" lon="4.62785">
        <ele>387</ele>
        <time>2011-06-12T14:55:36.000Z</time>
      </trkpt>
      <trkpt lat="45.57341" lon="4.62788">
        <ele>387.39999389648</ele>
        <time>2011-06-12T14:55:39.000Z</time>
      </trkpt>
      <trkpt lat="45.57355" lon="4.62799">
        <ele>389.60000610352</ele>
        <time>2011-06-12T14:55:54.000Z</time>
      </trkpt>
      <trkpt lat="45.57357" lon="4.628">
        <ele>390</ele>
        <time>2011-06-12T14:56:05.000Z</time>
      </trkpt>
      <trkpt lat="45.57359" lon="4.62802">
        <ele>390.20001220703</ele>
        <time>2011-06-12T14:56:07.000Z</time>
      </trkpt>
      <trkpt lat="45.57376" lon="4.62811">
        <ele>392.60000610352</ele>
        <time>2011-06-12T14:56:22.000Z</time>
      </trkpt>
      <trkpt lat="45.57397" lon="4.62816">
        <ele>395.39999389648</ele>
        <time>2011-06-12T14:56:41.000Z</time>
      </trkpt>
      <trkpt lat="45.5741" lon="4.62818">
        <ele>397</ele>
        <time>2011-06-12T14:56:56.000Z</time>
      </trkpt>
      <trkpt lat="45.57418" lon="4.62818">
        <ele>398</ele>
        <time>2011-06-12T14:57:10.000Z</time>
      </trkpt>
      <trkpt lat="45.57419" lon="4.62832">
        <ele>398.20001220703</ele>
        <time>2011-06-12T14:57:24.000Z</time>
      </trkpt>
      <trkpt lat="45.57421" lon="4.62832">
        <ele>398.39999389648</ele>
        <time>2011-06-12T14:57:29.000Z</time>
      </trkpt>
      <trkpt lat="45.57423" lon="4.62831">
        <ele>398.60000610352</ele>
        <time>2011-06-12T14:57:30.000Z</time>
      </trkpt>
      <trkpt lat="45.57425" lon="4.62814">
        <ele>398.79998779297</ele>
        <time>2011-06-12T14:57:40.000Z</time>
      </trkpt>
      <trkpt lat="45.57427" lon="4.62799">
        <ele>399.20001220703</ele>
        <time>2011-06-12T14:57:51.000Z</time>
      </trkpt>
      <trkpt lat="45.57439" lon="4.62776">
        <ele>400.60000610352</ele>
        <time>2011-06-12T14:58:07.000Z</time>
      </trkpt>
      <trkpt lat="45.57454" lon="4.62759">
        <ele>402.79998779297</ele>
        <time>2011-06-12T14:58:22.000Z</time>
      </trkpt>
      <trkpt lat="45.57469" lon="4.62742">
        <ele>404.79998779297</ele>
        <time>2011-06-12T14:58:37.000Z</time>
      </trkpt>
      <trkpt lat="45.57484" lon="4.62723">
        <ele>406.60000610352</ele>
        <time>2011-06-12T14:58:52.000Z</time>
      </trkpt>
      <trkpt lat="45.57499" lon="4.62702">
        <ele>408.20001220703</ele>
        <time>2011-06-12T14:59:08.000Z</time>
      </trkpt>
      <trkpt lat="45.57501" lon="4.62698">
        <ele>408.39999389648</ele>
        <time>2011-06-12T14:59:11.000Z</time>
      </trkpt>
      <trkpt lat="45.57516" lon="4.62679">
        <ele>410.39999389648</ele>
        <time>2011-06-12T14:59:27.000Z</time>
      </trkpt>
      <trkpt lat="45.57523" lon="4.62667">
        <ele>411.39999389648</ele>
        <time>2011-06-12T14:59:40.000Z</time>
      </trkpt>
      <trkpt lat="45.57523" lon="4.62667">
        <ele>411.39999389648</ele>
        <time>2011-06-12T14:59:56.000Z</time>
      </trkpt>
      <trkpt lat="45.57524" lon="4.62665">
        <ele>411.79998779297</ele>
        <time>2011-06-12T15:00:12.000Z</time>
      </trkpt>
      <trkpt lat="45.57528" lon="4.62658">
        <ele>412.39999389648</ele>
        <time>2011-06-12T15:00:25.000Z</time>
      </trkpt>
      <trkpt lat="45.57542" lon="4.62638">
        <ele>415.20001220703</ele>
        <time>2011-06-12T15:00:43.000Z</time>
      </trkpt>
      <trkpt lat="45.57554" lon="4.62616">
        <ele>417.39999389648</ele>
        <time>2011-06-12T15:00:58.000Z</time>
      </trkpt>
      <trkpt lat="45.5756" lon="4.62607">
        <ele>418.39999389648</ele>
        <time>2011-06-12T15:01:08.000Z</time>
      </trkpt>
      <trkpt lat="45.57567" lon="4.62594">
        <ele>419.60000610352</ele>
        <time>2011-06-12T15:01:18.000Z</time>
      </trkpt>
      <trkpt lat="45.5757" lon="4.62582">
        <ele>420.20001220703</ele>
        <time>2011-06-12T15:01:31.000Z</time>
      </trkpt>
      <trkpt lat="45.57571" lon="4.62578">
        <ele>420.39999389648</ele>
        <time>2011-06-12T15:01:34.000Z</time>
      </trkpt>
      <trkpt lat="45.57582" lon="4.62556">
        <ele>422.60000610352</ele>
        <time>2011-06-12T15:01:50.000Z</time>
      </trkpt>
      <trkpt lat="45.57582" lon="4.62556">
        <ele>422.79998779297</ele>
        <time>2011-06-12T15:01:51.000Z</time>
      </trkpt>
      <trkpt lat="45.57592" lon="4.62528">
        <ele>425.60000610352</ele>
        <time>2011-06-12T15:02:07.000Z</time>
      </trkpt>
      <trkpt lat="45.57597" lon="4.62501">
        <ele>427.20001220703</ele>
        <time>2011-06-12T15:02:24.000Z</time>
      </trkpt>
      <trkpt lat="45.576" lon="4.62478">
        <ele>428</ele>
        <time>2011-06-12T15:02:38.000Z</time>
      </trkpt>
      <trkpt lat="45.57606" lon="4.62451">
        <ele>429.20001220703</ele>
        <time>2011-06-12T15:02:56.000Z</time>
      </trkpt>
      <trkpt lat="45.57608" lon="4.62449">
        <ele>429.39999389648</ele>
        <time>2011-06-12T15:02:58.000Z</time>
      </trkpt>
      <trkpt lat="45.57628" lon="4.62438">
        <ele>432.60000610352</ele>
        <time>2011-06-12T15:03:13.000Z</time>
      </trkpt>
      <trkpt lat="45.57642" lon="4.62437">
        <ele>434.60000610352</ele>
        <time>2011-06-12T15:03:27.000Z</time>
      </trkpt>
      <trkpt lat="45.57656" lon="4.62436">
        <ele>436.60000610352</ele>
        <time>2011-06-12T15:03:39.000Z</time>
      </trkpt>
      <trkpt lat="45.57668" lon="4.62434">
        <ele>438.60000610352</ele>
        <time>2011-06-12T15:03:53.000Z</time>
      </trkpt>
      <trkpt lat="45.57678" lon="4.62416">
        <ele>440.20001220703</ele>
        <time>2011-06-12T15:04:10.000Z</time>
      </trkpt>
      <trkpt lat="45.57679" lon="4.62412">
        <ele>440.39999389648</ele>
        <time>2011-06-12T15:04:13.000Z</time>
      </trkpt>
      <trkpt lat="45.57685" lon="4.62395">
        <ele>440.79998779297</ele>
        <time>2011-06-12T15:04:28.000Z</time>
      </trkpt>
      <trkpt lat="45.57697" lon="4.62373">
        <ele>442</ele>
        <time>2011-06-12T15:04:43.000Z</time>
      </trkpt>
      <trkpt lat="45.577" lon="4.62369">
        <ele>442.39999389648</ele>
        <time>2011-06-12T15:04:46.000Z</time>
      </trkpt>
      <trkpt lat="45.57721" lon="4.62359">
        <ele>445.60000610352</ele>
        <time>2011-06-12T15:05:03.000Z</time>
      </trkpt>
      <trkpt lat="45.5774" lon="4.6235">
        <ele>448.60000610352</ele>
        <time>2011-06-12T15:05:19.000Z</time>
      </trkpt>
      <trkpt lat="45.57761" lon="4.62344">
        <ele>451</ele>
        <time>2011-06-12T15:05:36.000Z</time>
      </trkpt>
      <trkpt lat="45.57776" lon="4.62338">
        <ele>452.20001220703</ele>
        <time>2011-06-12T15:05:49.000Z</time>
      </trkpt>
      <trkpt lat="45.57793" lon="4.62336">
        <ele>454</ele>
        <time>2011-06-12T15:06:04.000Z</time>
      </trkpt>
      <trkpt lat="45.578" lon="4.62339">
        <ele>455</ele>
        <time>2011-06-12T15:06:17.000Z</time>
      </trkpt>
      <trkpt lat="45.578" lon="4.62339">
        <ele>455</ele>
        <time>2011-06-12T15:06:28.000Z</time>
      </trkpt>
      <trkpt lat="45.57826" lon="4.62337">
        <ele>457.60000610352</ele>
        <time>2011-06-12T15:06:47.000Z</time>
      </trkpt>
      <trkpt lat="45.57845" lon="4.62329">
        <ele>458</ele>
        <time>2011-06-12T15:07:02.000Z</time>
      </trkpt>
      <trkpt lat="45.57859" lon="4.62326">
        <ele>458.39999389648</ele>
        <time>2011-06-12T15:07:18.000Z</time>
      </trkpt>
      <trkpt lat="45.57863" lon="4.62325">
        <ele>458.60000610352</ele>
        <time>2011-06-12T15:07:22.000Z</time>
      </trkpt>
      <trkpt lat="45.57869" lon="4.62324">
        <ele>458.79998779297</ele>
        <time>2011-06-12T15:07:27.000Z</time>
      </trkpt>
      <trkpt lat="45.57871" lon="4.62322">
        <ele>458.60000610352</ele>
        <time>2011-06-12T15:07:32.000Z</time>
      </trkpt>
      <trkpt lat="45.57878" lon="4.62321">
        <ele>459</ele>
        <time>2011-06-12T15:07:38.000Z</time>
      </trkpt>
      <trkpt lat="45.57902" lon="4.62315">
        <ele>459.60000610352</ele>
        <time>2011-06-12T15:07:56.000Z</time>
      </trkpt>
      <trkpt lat="45.57926" lon="4.6231">
        <ele>460.39999389648</ele>
        <time>2011-06-12T15:08:14.000Z</time>
      </trkpt>
      <trkpt lat="45.5795" lon="4.62307">
        <ele>462</ele>
        <time>2011-06-12T15:08:31.000Z</time>
      </trkpt>
      <trkpt lat="45.57974" lon="4.62302">
        <ele>463</ele>
        <time>2011-06-12T15:08:48.000Z</time>
      </trkpt>
      <trkpt lat="45.58001" lon="4.62298">
        <ele>464.39999389648</ele>
        <time>2011-06-12T15:09:08.000Z</time>
      </trkpt>
      <trkpt lat="45.58023" lon="4.62295">
        <ele>464.79998779297</ele>
        <time>2011-06-12T15:09:24.000Z</time>
      </trkpt>
      <trkpt lat="45.58045" lon="4.62294">
        <ele>465.39999389648</ele>
        <time>2011-06-12T15:09:40.000Z</time>
      </trkpt>
      <trkpt lat="45.58072" lon="4.62292">
        <ele>466</ele>
        <time>2011-06-12T15:10:00.000Z</time>
      </trkpt>
      <trkpt lat="45.58095" lon="4.62291">
        <ele>466.39999389648</ele>
        <time>2011-06-12T15:10:16.000Z</time>
      </trkpt>
      <trkpt lat="45.58118" lon="4.6229">
        <ele>466.60000610352</ele>
        <time>2011-06-12T15:10:33.000Z</time>
      </trkpt>
      <trkpt lat="45.58142" lon="4.62289">
        <ele>466.79998779297</ele>
        <time>2011-06-12T15:10:49.000Z</time>
      </trkpt>
      <trkpt lat="45.58168" lon="4.62298">
        <ele>468</ele>
        <time>2011-06-12T15:11:08.000Z</time>
      </trkpt>
      <trkpt lat="45.5819" lon="4.6231">
        <ele>469.20001220703</ele>
        <time>2011-06-12T15:11:25.000Z</time>
      </trkpt>
      <trkpt lat="45.58212" lon="4.62322">
        <ele>470.20001220703</ele>
        <time>2011-06-12T15:11:42.000Z</time>
      </trkpt>
      <trkpt lat="45.58237" lon="4.62335">
        <ele>471.20001220703</ele>
        <time>2011-06-12T15:12:01.000Z</time>
      </trkpt>
      <trkpt lat="45.58265" lon="4.62344">
        <ele>473.60000610352</ele>
        <time>2011-06-12T15:12:21.000Z</time>
      </trkpt>
      <trkpt lat="45.58291" lon="4.62338">
        <ele>475.79998779297</ele>
        <time>2011-06-12T15:12:40.000Z</time>
      </trkpt>
      <trkpt lat="45.58306" lon="4.62327">
        <ele>476.60000610352</ele>
        <time>2011-06-12T15:12:54.000Z</time>
      </trkpt>
      <trkpt lat="45.58315" lon="4.62317">
        <ele>477.20001220703</ele>
        <time>2011-06-12T15:13:07.000Z</time>
      </trkpt>
      <trkpt lat="45.58318" lon="4.6231">
        <ele>477.20001220703</ele>
        <time>2011-06-12T15:13:13.000Z</time>
      </trkpt>
      <trkpt lat="45.58322" lon="4.62302">
        <ele>477.20001220703</ele>
        <time>2011-06-12T15:13:17.000Z</time>
      </trkpt>
      <trkpt lat="45.5833" lon="4.62268">
        <ele>477</ele>
        <time>2011-06-12T15:13:33.000Z</time>
      </trkpt>
      <trkpt lat="45.58334" lon="4.62243">
        <ele>477.20001220703</ele>
        <time>2011-06-12T15:13:46.000Z</time>
      </trkpt>
      <trkpt lat="45.58334" lon="4.6221">
        <ele>477.39999389648</ele>
        <time>2011-06-12T15:14:02.000Z</time>
      </trkpt>
      <trkpt lat="45.5833" lon="4.62178">
        <ele>477.20001220703</ele>
        <time>2011-06-12T15:14:17.000Z</time>
      </trkpt>
      <trkpt lat="45.58328" lon="4.62146">
        <ele>476.79998779297</ele>
        <time>2011-06-12T15:14:32.000Z</time>
      </trkpt>
      <trkpt lat="45.58321" lon="4.62116">
        <ele>475.39999389648</ele>
        <time>2011-06-12T15:14:47.000Z</time>
      </trkpt>
      <trkpt lat="45.58319" lon="4.62107">
        <ele>475.20001220703</ele>
        <time>2011-06-12T15:14:52.000Z</time>
      </trkpt>
      <trkpt lat="45.58319" lon="4.62098">
        <ele>475</ele>
        <time>2011-06-12T15:15:02.000Z</time>
      </trkpt>
      <trkpt lat="45.58318" lon="4.62072">
        <ele>475.20001220703</ele>
        <time>2011-06-12T15:15:17.000Z</time>
      </trkpt>
      <trkpt lat="45.5832" lon="4.62062">
        <ele>475.79998779297</ele>
        <time>2011-06-12T15:15:22.000Z</time>
      </trkpt>
      <trkpt lat="45.58326" lon="4.62031">
        <ele>477.79998779297</ele>
        <time>2011-06-12T15:15:37.000Z</time>
      </trkpt>
      <trkpt lat="45.58332" lon="4.62">
        <ele>479.60000610352</ele>
        <time>2011-06-12T15:15:53.000Z</time>
      </trkpt>
      <trkpt lat="45.58338" lon="4.61969">
        <ele>481.20001220703</ele>
        <time>2011-06-12T15:16:09.000Z</time>
      </trkpt>
      <trkpt lat="45.58344" lon="4.61938">
        <ele>482.39999389648</ele>
        <time>2011-06-12T15:16:25.000Z</time>
      </trkpt>
      <trkpt lat="45.5835" lon="4.61912">
        <ele>483</ele>
        <time>2011-06-12T15:16:38.000Z</time>
      </trkpt>
      <trkpt lat="45.58358" lon="4.6188">
        <ele>482.60000610352</ele>
        <time>2011-06-12T15:16:55.000Z</time>
      </trkpt>
      <trkpt lat="45.58366" lon="4.61855">
        <ele>482.79998779297</ele>
        <time>2011-06-12T15:17:09.000Z</time>
      </trkpt>
      <trkpt lat="45.58376" lon="4.61833">
        <ele>483</ele>
        <time>2011-06-12T15:17:22.000Z</time>
      </trkpt>
      <trkpt lat="45.58388" lon="4.61812">
        <ele>483.20001220703</ele>
        <time>2011-06-12T15:17:37.000Z</time>
      </trkpt>
      <trkpt lat="45.58402" lon="4.61794">
        <ele>483.39999389648</ele>
        <time>2011-06-12T15:17:50.000Z</time>
      </trkpt>
      <trkpt lat="45.58408" lon="4.6178">
        <ele>483</ele>
        <time>2011-06-12T15:18:04.000Z</time>
      </trkpt>
      <trkpt lat="45.5841" lon="4.61778">
        <ele>482.79998779297</ele>
        <time>2011-06-12T15:18:07.000Z</time>
      </trkpt>
      <trkpt lat="45.58421" lon="4.61762">
        <ele>482.60000610352</ele>
        <time>2011-06-12T15:18:21.000Z</time>
      </trkpt>
      <trkpt lat="45.5844" lon="4.61744">
        <ele>483.60000610352</ele>
        <time>2011-06-12T15:18:37.000Z</time>
      </trkpt>
      <trkpt lat="45.58454" lon="4.61733">
        <ele>484.39999389648</ele>
        <time>2011-06-12T15:18:49.000Z</time>
      </trkpt>
      <trkpt lat="45.58472" lon="4.61716">
        <ele>484.79998779297</ele>
        <time>2011-06-12T15:19:04.000Z</time>
      </trkpt>
      <trkpt lat="45.5849" lon="4.617">
        <ele>485</ele>
        <time>2011-06-12T15:19:20.000Z</time>
      </trkpt>
      <trkpt lat="45.58497" lon="4.61691">
        <ele>484.79998779297</ele>
        <time>2011-06-12T15:19:27.000Z</time>
      </trkpt>
      <trkpt lat="45.58507" lon="4.61677">
        <ele>484.60000610352</ele>
        <time>2011-06-12T15:19:38.000Z</time>
      </trkpt>
      <trkpt lat="45.58512" lon="4.61659">
        <ele>484.39999389648</ele>
        <time>2011-06-12T15:19:51.000Z</time>
      </trkpt>
      <trkpt lat="45.58512" lon="4.61658">
        <ele>484.39999389648</ele>
        <time>2011-06-12T15:19:53.000Z</time>
      </trkpt>
      <trkpt lat="45.58516" lon="4.61653">
        <ele>485</ele>
        <time>2011-06-12T15:19:57.000Z</time>
      </trkpt>
      <trkpt lat="45.58518" lon="4.61645">
        <ele>485.39999389648</ele>
        <time>2011-06-12T15:20:02.000Z</time>
      </trkpt>
      <trkpt lat="45.58524" lon="4.61621">
        <ele>486</ele>
        <time>2011-06-12T15:20:16.000Z</time>
      </trkpt>
      <trkpt lat="45.58527" lon="4.61592">
        <ele>486</ele>
        <time>2011-06-12T15:20:30.000Z</time>
      </trkpt>
      <trkpt lat="45.5853" lon="4.6156">
        <ele>485.79998779297</ele>
        <time>2011-06-12T15:20:46.000Z</time>
      </trkpt>
      <trkpt lat="45.58531" lon="4.61553">
        <ele>485.79998779297</ele>
        <time>2011-06-12T15:20:51.000Z</time>
      </trkpt>
      <trkpt lat="45.58535" lon="4.61536">
        <ele>486.39999389648</ele>
        <time>2011-06-12T15:21:06.000Z</time>
      </trkpt>
      <trkpt lat="45.58535" lon="4.61536">
        <ele>486.39999389648</ele>
        <time>2011-06-12T15:21:08.000Z</time>
      </trkpt>
      <trkpt lat="45.58535" lon="4.61532">
        <ele>486.20001220703</ele>
        <time>2011-06-12T15:21:10.000Z</time>
      </trkpt>
      <trkpt lat="45.58536" lon="4.61518">
        <ele>486.20001220703</ele>
        <time>2011-06-12T15:21:16.000Z</time>
      </trkpt>
      <trkpt lat="45.5854" lon="4.61484">
        <ele>486.60000610352</ele>
        <time>2011-06-12T15:21:33.000Z</time>
      </trkpt>
      <trkpt lat="45.58542" lon="4.61447">
        <ele>486.79998779297</ele>
        <time>2011-06-12T15:21:51.000Z</time>
      </trkpt>
      <trkpt lat="45.58536" lon="4.61415">
        <ele>485.79998779297</ele>
        <time>2011-06-12T15:22:08.000Z</time>
      </trkpt>
      <trkpt lat="45.58529" lon="4.61384">
        <ele>486</ele>
        <time>2011-06-12T15:22:24.000Z</time>
      </trkpt>
      <trkpt lat="45.58522" lon="4.61352">
        <ele>486</ele>
        <time>2011-06-12T15:22:40.000Z</time>
      </trkpt>
      <trkpt lat="45.5852" lon="4.61333">
        <ele>486.39999389648</ele>
        <time>2011-06-12T15:22:51.000Z</time>
      </trkpt>
      <trkpt lat="45.58518" lon="4.61326">
        <ele>486.20001220703</ele>
        <time>2011-06-12T15:22:55.000Z</time>
      </trkpt>
      <trkpt lat="45.58511" lon="4.61296">
        <ele>485.20001220703</ele>
        <time>2011-06-12T15:23:11.000Z</time>
      </trkpt>
      <trkpt lat="45.58506" lon="4.61266">
        <ele>484.60000610352</ele>
        <time>2011-06-12T15:23:27.000Z</time>
      </trkpt>
      <trkpt lat="45.58505" lon="4.61239">
        <ele>484.20001220703</ele>
        <time>2011-06-12T15:23:40.000Z</time>
      </trkpt>
      <trkpt lat="45.58512" lon="4.61203">
        <ele>484</ele>
        <time>2011-06-12T15:23:58.000Z</time>
      </trkpt>
      <trkpt lat="45.58521" lon="4.61175">
        <ele>483.79998779297</ele>
        <time>2011-06-12T15:24:15.000Z</time>
      </trkpt>
      <trkpt lat="45.58532" lon="4.61155">
        <ele>483</ele>
        <time>2011-06-12T15:24:27.000Z</time>
      </trkpt>
      <trkpt lat="45.58545" lon="4.61137">
        <ele>482</ele>
        <time>2011-06-12T15:24:39.000Z</time>
      </trkpt>
      <trkpt lat="45.58564" lon="4.61122">
        <ele>481.60000610352</ele>
        <time>2011-06-12T15:24:55.000Z</time>
      </trkpt>
      <trkpt lat="45.58567" lon="4.61119">
        <ele>481.60000610352</ele>
        <time>2011-06-12T15:24:57.000Z</time>
      </trkpt>
      <trkpt lat="45.58575" lon="4.61115">
        <ele>481.79998779297</ele>
        <time>2011-06-12T15:25:03.000Z</time>
      </trkpt>
      <trkpt lat="45.58591" lon="4.61111">
        <ele>481.79998779297</ele>
        <time>2011-06-12T15:25:13.000Z</time>
      </trkpt>
      <trkpt lat="45.58599" lon="4.61107">
        <ele>481.39999389648</ele>
        <time>2011-06-12T15:25:26.000Z</time>
      </trkpt>
      <trkpt lat="45.58599" lon="4.61107">
        <ele>481.39999389648</ele>
        <time>2011-06-12T15:25:52.000Z</time>
      </trkpt>
      <trkpt lat="45.58599" lon="4.61107">
        <ele>481.39999389648</ele>
        <time>2011-06-12T15:26:09.000Z</time>
      </trkpt>
      <trkpt lat="45.586" lon="4.61107">
        <ele>481.39999389648</ele>
        <time>2011-06-12T15:26:36.000Z</time>
      </trkpt>
      <trkpt lat="45.58601" lon="4.61106">
        <ele>481.39999389648</ele>
        <time>2011-06-12T15:26:38.000Z</time>
      </trkpt>
      <trkpt lat="45.5862" lon="4.61098">
        <ele>480.39999389648</ele>
        <time>2011-06-12T15:26:52.000Z</time>
      </trkpt>
      <trkpt lat="45.58626" lon="4.61097">
        <ele>480.20001220703</ele>
        <time>2011-06-12T15:26:57.000Z</time>
      </trkpt>
      <trkpt lat="45.58651" lon="4.61088">
        <ele>478.79998779297</ele>
        <time>2011-06-12T15:27:15.000Z</time>
      </trkpt>
      <trkpt lat="45.58672" lon="4.61082">
        <ele>478</ele>
        <time>2011-06-12T15:27:31.000Z</time>
      </trkpt>
      <trkpt lat="45.58693" lon="4.61073">
        <ele>477.60000610352</ele>
        <time>2011-06-12T15:27:48.000Z</time>
      </trkpt>
      <trkpt lat="45.58698" lon="4.61073">
        <ele>478</ele>
        <time>2011-06-12T15:27:52.000Z</time>
      </trkpt>
      <trkpt lat="45.58704" lon="4.6107">
        <ele>477.79998779297</ele>
        <time>2011-06-12T15:27:56.000Z</time>
      </trkpt>
      <trkpt lat="45.58727" lon="4.61061">
        <ele>478</ele>
        <time>2011-06-12T15:28:13.000Z</time>
      </trkpt>
      <trkpt lat="45.58728" lon="4.6106">
        <ele>478</ele>
        <time>2011-06-12T15:28:14.000Z</time>
      </trkpt>
      <trkpt lat="45.58748" lon="4.61055">
        <ele>478.39999389648</ele>
        <time>2011-06-12T15:28:28.000Z</time>
      </trkpt>
      <trkpt lat="45.58763" lon="4.61046">
        <ele>477.60000610352</ele>
        <time>2011-06-12T15:28:41.000Z</time>
      </trkpt>
      <trkpt lat="45.58785" lon="4.61044">
        <ele>477.79998779297</ele>
        <time>2011-06-12T15:28:57.000Z</time>
      </trkpt>
      <trkpt lat="45.58809" lon="4.61053">
        <ele>478.79998779297</ele>
        <time>2011-06-12T15:29:14.000Z</time>
      </trkpt>
      <trkpt lat="45.58825" lon="4.61064">
        <ele>479.79998779297</ele>
        <time>2011-06-12T15:29:28.000Z</time>
      </trkpt>
      <trkpt lat="45.5884" lon="4.61083">
        <ele>480</ele>
        <time>2011-06-12T15:29:42.000Z</time>
      </trkpt>
      <trkpt lat="45.58849" lon="4.61105">
        <ele>480.39999389648</ele>
        <time>2011-06-12T15:29:54.000Z</time>
      </trkpt>
      <trkpt lat="45.58859" lon="4.61129">
        <ele>481.20001220703</ele>
        <time>2011-06-12T15:30:07.000Z</time>
      </trkpt>
      <trkpt lat="45.58871" lon="4.61152">
        <ele>481.60000610352</ele>
        <time>2011-06-12T15:30:21.000Z</time>
      </trkpt>
      <trkpt lat="45.58882" lon="4.61173">
        <ele>482</ele>
        <time>2011-06-12T15:30:36.000Z</time>
      </trkpt>
      <trkpt lat="45.58913" lon="4.61186">
        <ele>479</ele>
        <time>2011-06-12T15:30:54.000Z</time>
      </trkpt>
      <trkpt lat="45.58934" lon="4.61185">
        <ele>479.39999389648</ele>
        <time>2011-06-12T15:31:09.000Z</time>
      </trkpt>
      <trkpt lat="45.58944" lon="4.61181">
        <ele>479.79998779297</ele>
        <time>2011-06-12T15:31:22.000Z</time>
      </trkpt>
      <trkpt lat="45.5895" lon="4.61176">
        <ele>479.60000610352</ele>
        <time>2011-06-12T15:31:29.000Z</time>
      </trkpt>
      <trkpt lat="45.5896" lon="4.61168">
        <ele>479.60000610352</ele>
        <time>2011-06-12T15:31:43.000Z</time>
      </trkpt>
      <trkpt lat="45.58961" lon="4.61165">
        <ele>479.39999389648</ele>
        <time>2011-06-12T15:31:51.000Z</time>
      </trkpt>
      <trkpt lat="45.58977" lon="4.61153">
        <ele>479</ele>
        <time>2011-06-12T15:32:03.000Z</time>
      </trkpt>
      <trkpt lat="45.58991" lon="4.61137">
        <ele>478.20001220703</ele>
        <time>2011-06-12T15:32:16.000Z</time>
      </trkpt>
      <trkpt lat="45.59008" lon="4.61119">
        <ele>477.39999389648</ele>
        <time>2011-06-12T15:32:30.000Z</time>
      </trkpt>
      <trkpt lat="45.59018" lon="4.61105">
        <ele>476.60000610352</ele>
        <time>2011-06-12T15:32:43.000Z</time>
      </trkpt>
      <trkpt lat="45.59018" lon="4.61104">
        <ele>476.60000610352</ele>
        <time>2011-06-12T15:32:44.000Z</time>
      </trkpt>
      <trkpt lat="45.59038" lon="4.61082">
        <ele>476</ele>
        <time>2011-06-12T15:32:57.000Z</time>
      </trkpt>
      <trkpt lat="45.59044" lon="4.6108">
        <ele>476.20001220703</ele>
        <time>2011-06-12T15:33:09.000Z</time>
      </trkpt>
      <trkpt lat="45.59047" lon="4.61075">
        <ele>476</ele>
        <time>2011-06-12T15:33:12.000Z</time>
      </trkpt>
      <trkpt lat="45.59073" lon="4.61051">
        <ele>475.79998779297</ele>
        <time>2011-06-12T15:33:28.000Z</time>
      </trkpt>
      <trkpt lat="45.59079" lon="4.61043">
        <ele>475.60000610352</ele>
        <time>2011-06-12T15:33:37.000Z</time>
      </trkpt>
      <trkpt lat="45.59083" lon="4.6104">
        <ele>475.79998779297</ele>
        <time>2011-06-12T15:33:40.000Z</time>
      </trkpt>
      <trkpt lat="45.59102" lon="4.61018">
        <ele>475.20001220703</ele>
        <time>2011-06-12T15:33:55.000Z</time>
      </trkpt>
      <trkpt lat="45.59105" lon="4.61016">
        <ele>475.39999389648</ele>
        <time>2011-06-12T15:34:00.000Z</time>
      </trkpt>
      <trkpt lat="45.59126" lon="4.61">
        <ele>476</ele>
        <time>2011-06-12T15:34:15.000Z</time>
      </trkpt>
      <trkpt lat="45.59143" lon="4.60994">
        <ele>476.60000610352</ele>
        <time>2011-06-12T15:34:29.000Z</time>
      </trkpt>
      <trkpt lat="45.59159" lon="4.60995">
        <ele>478.39999389648</ele>
        <time>2011-06-12T15:34:41.000Z</time>
      </trkpt>
      <trkpt lat="45.59162" lon="4.60994">
        <ele>478.39999389648</ele>
        <time>2011-06-12T15:34:44.000Z</time>
      </trkpt>
      <trkpt lat="45.59168" lon="4.60991">
        <ele>478.39999389648</ele>
        <time>2011-06-12T15:34:48.000Z</time>
      </trkpt>
      <trkpt lat="45.59181" lon="4.60993">
        <ele>479.20001220703</ele>
        <time>2011-06-12T15:35:00.000Z</time>
      </trkpt>
      <trkpt lat="45.59195" lon="4.60989">
        <ele>479.39999389648</ele>
        <time>2011-06-12T15:35:07.000Z</time>
      </trkpt>
      <trkpt lat="45.59204" lon="4.60987">
        <ele>479.39999389648</ele>
        <time>2011-06-12T15:35:16.000Z</time>
      </trkpt>
      <trkpt lat="45.59226" lon="4.60976">
        <ele>479</ele>
        <time>2011-06-12T15:35:29.000Z</time>
      </trkpt>
      <trkpt lat="45.59231" lon="4.60971">
        <ele>478.60000610352</ele>
        <time>2011-06-12T15:35:38.000Z</time>
      </trkpt>
      <trkpt lat="45.59248" lon="4.6095">
        <ele>477.39999389648</ele>
        <time>2011-06-12T15:35:51.000Z</time>
      </trkpt>
      <trkpt lat="45.59258" lon="4.60944">
        <ele>477.79998779297</ele>
        <time>2011-06-12T15:36:04.000Z</time>
      </trkpt>
      <trkpt lat="45.59273" lon="4.60936">
        <ele>478.20001220703</ele>
        <time>2011-06-12T15:36:16.000Z</time>
      </trkpt>
      <trkpt lat="45.59273" lon="4.60935">
        <ele>478.20001220703</ele>
        <time>2011-06-12T15:36:19.000Z</time>
      </trkpt>
      <trkpt lat="45.59277" lon="4.6093">
        <ele>478</ele>
        <time>2011-06-12T15:36:24.000Z</time>
      </trkpt>
      <trkpt lat="45.59303" lon="4.60918">
        <ele>479.20001220703</ele>
        <time>2011-06-12T15:36:37.000Z</time>
      </trkpt>
      <trkpt lat="45.5932" lon="4.60914">
        <ele>480.20001220703</ele>
        <time>2011-06-12T15:36:50.000Z</time>
      </trkpt>
      <trkpt lat="45.5933" lon="4.60903">
        <ele>480</ele>
        <time>2011-06-12T15:37:01.000Z</time>
      </trkpt>
      <trkpt lat="45.59351" lon="4.60888">
        <ele>480.60000610352</ele>
        <time>2011-06-12T15:37:14.000Z</time>
      </trkpt>
      <trkpt lat="45.59356" lon="4.60887">
        <ele>481.20001220703</ele>
        <time>2011-06-12T15:37:22.000Z</time>
      </trkpt>
      <trkpt lat="45.59365" lon="4.60882">
        <ele>481.60000610352</ele>
        <time>2011-06-12T15:37:27.000Z</time>
      </trkpt>
      <trkpt lat="45.59369" lon="4.6088">
        <ele>482</ele>
        <time>2011-06-12T15:37:33.000Z</time>
      </trkpt>
      <trkpt lat="45.59384" lon="4.60871">
        <ele>482.79998779297</ele>
        <time>2011-06-12T15:37:46.000Z</time>
      </trkpt>
      <trkpt lat="45.59397" lon="4.60869">
        <ele>484.20001220703</ele>
        <time>2011-06-12T15:37:59.000Z</time>
      </trkpt>
      <trkpt lat="45.59399" lon="4.60867">
        <ele>484.20001220703</ele>
        <time>2011-06-12T15:38:03.000Z</time>
      </trkpt>
      <trkpt lat="45.59417" lon="4.60837">
        <ele>483.39999389648</ele>
        <time>2011-06-12T15:38:17.000Z</time>
      </trkpt>
      <trkpt lat="45.59417" lon="4.6083">
        <ele>483</ele>
        <time>2011-06-12T15:38:23.000Z</time>
      </trkpt>
      <trkpt lat="45.5942" lon="4.60818">
        <ele>483.20001220703</ele>
        <time>2011-06-12T15:38:28.000Z</time>
      </trkpt>
      <trkpt lat="45.59422" lon="4.6082">
        <ele>483.79998779297</ele>
        <time>2011-06-12T15:38:33.000Z</time>
      </trkpt>
      <trkpt lat="45.59421" lon="4.60833">
        <ele>484.20001220703</ele>
        <time>2011-06-12T15:38:40.000Z</time>
      </trkpt>
      <trkpt lat="45.5942" lon="4.60847">
        <ele>485.39999389648</ele>
        <time>2011-06-12T15:38:48.000Z</time>
      </trkpt>
      <trkpt lat="45.59414" lon="4.60864">
        <ele>485.79998779297</ele>
        <time>2011-06-12T15:39:00.000Z</time>
      </trkpt>
      <trkpt lat="45.59411" lon="4.60875">
        <ele>486.60000610352</ele>
        <time>2011-06-12T15:39:13.000Z</time>
      </trkpt>
      <trkpt lat="45.59413" lon="4.60873">
        <ele>486.79998779297</ele>
        <time>2011-06-12T15:39:15.000Z</time>
      </trkpt>
      <trkpt lat="45.59421" lon="4.60865">
        <ele>487.60000610352</ele>
        <time>2011-06-12T15:39:22.000Z</time>
      </trkpt>
      <trkpt lat="45.59439" lon="4.60852">
        <ele>491</ele>
        <time>2011-06-12T15:39:37.000Z</time>
      </trkpt>
      <trkpt lat="45.5945" lon="4.6084">
        <ele>493</ele>
        <time>2011-06-12T15:39:48.000Z</time>
      </trkpt>
      <trkpt lat="45.59458" lon="4.60827">
        <ele>494.20001220703</ele>
        <time>2011-06-12T15:40:01.000Z</time>
      </trkpt>
      <trkpt lat="45.59459" lon="4.60823">
        <ele>494</ele>
        <time>2011-06-12T15:40:04.000Z</time>
      </trkpt>
      <trkpt lat="45.59468" lon="4.60813">
        <ele>495.60000610352</ele>
        <time>2011-06-12T15:40:16.000Z</time>
      </trkpt>
      <trkpt lat="45.59469" lon="4.60819">
        <ele>496.39999389648</ele>
        <time>2011-06-12T15:40:20.000Z</time>
      </trkpt>
      <trkpt lat="45.59467" lon="4.60828">
        <ele>496.79998779297</ele>
        <time>2011-06-12T15:40:26.000Z</time>
      </trkpt>
      <trkpt lat="45.59466" lon="4.60848">
        <ele>498.20001220703</ele>
        <time>2011-06-12T15:40:40.000Z</time>
      </trkpt>
      <trkpt lat="45.59465" lon="4.6085">
        <ele>498.20001220703</ele>
        <time>2011-06-12T15:40:41.000Z</time>
      </trkpt>
      <trkpt lat="45.59466" lon="4.60864">
        <ele>499.60000610352</ele>
        <time>2011-06-12T15:40:57.000Z</time>
      </trkpt>
      <trkpt lat="45.59466" lon="4.60869">
        <ele>499.79998779297</ele>
        <time>2011-06-12T15:41:05.000Z</time>
      </trkpt>
      <trkpt lat="45.59466" lon="4.60876">
        <ele>500.39999389648</ele>
        <time>2011-06-12T15:41:09.000Z</time>
      </trkpt>
      <trkpt lat="45.59466" lon="4.60879">
        <ele>500.60000610352</ele>
        <time>2011-06-12T15:41:11.000Z</time>
      </trkpt>
      <trkpt lat="45.59467" lon="4.6088">
        <ele>501.20001220703</ele>
        <time>2011-06-12T15:41:13.000Z</time>
      </trkpt>
      <trkpt lat="45.59483" lon="4.60893">
        <ele>506.20001220703</ele>
        <time>2011-06-12T15:41:26.000Z</time>
      </trkpt>
      <trkpt lat="45.59484" lon="4.60905">
        <ele>507.20001220703</ele>
        <time>2011-06-12T15:41:31.000Z</time>
      </trkpt>
      <trkpt lat="45.59484" lon="4.60926">
        <ele>507.79998779297</ele>
        <time>2011-06-12T15:41:44.000Z</time>
      </trkpt>
      <trkpt lat="45.59489" lon="4.60945">
        <ele>508</ele>
        <time>2011-06-12T15:41:58.000Z</time>
      </trkpt>
      <trkpt lat="45.59492" lon="4.6095">
        <ele>508.39999389648</ele>
        <time>2011-06-12T15:42:01.000Z</time>
      </trkpt>
      <trkpt lat="45.59497" lon="4.60954">
        <ele>509</ele>
        <time>2011-06-12T15:42:07.000Z</time>
      </trkpt>
      <trkpt lat="45.59511" lon="4.60967">
        <ele>510</ele>
        <time>2011-06-12T15:42:22.000Z</time>
      </trkpt>
      <trkpt lat="45.59527" lon="4.60981">
        <ele>510.79998779297</ele>
        <time>2011-06-12T15:42:37.000Z</time>
      </trkpt>
      <trkpt lat="45.5953" lon="4.60982">
        <ele>511</ele>
        <time>2011-06-12T15:42:39.000Z</time>
      </trkpt>
      <trkpt lat="45.59549" lon="4.60981">
        <ele>513</ele>
        <time>2011-06-12T15:42:56.000Z</time>
      </trkpt>
      <trkpt lat="45.59555" lon="4.60984">
        <ele>513.40002441406</ele>
        <time>2011-06-12T15:43:01.000Z</time>
      </trkpt>
      <trkpt lat="45.59567" lon="4.60987">
        <ele>514.40002441406</ele>
        <time>2011-06-12T15:43:07.000Z</time>
      </trkpt>
      <trkpt lat="45.59586" lon="4.60984">
        <ele>516</ele>
        <time>2011-06-12T15:43:17.000Z</time>
      </trkpt>
      <trkpt lat="45.59596" lon="4.60971">
        <ele>516.20001220703</ele>
        <time>2011-06-12T15:43:28.000Z</time>
      </trkpt>
      <trkpt lat="45.59598" lon="4.60969">
        <ele>516.20001220703</ele>
        <time>2011-06-12T15:43:32.000Z</time>
      </trkpt>
      <trkpt lat="45.59613" lon="4.60955">
        <ele>516.59997558594</ele>
        <time>2011-06-12T15:43:44.000Z</time>
      </trkpt>
      <trkpt lat="45.59626" lon="4.60932">
        <ele>518.79998779297</ele>
        <time>2011-06-12T15:44:00.000Z</time>
      </trkpt>
      <trkpt lat="45.59634" lon="4.60917">
        <ele>520.59997558594</ele>
        <time>2011-06-12T15:44:11.000Z</time>
      </trkpt>
      <trkpt lat="45.59649" lon="4.60899">
        <ele>521</ele>
        <time>2011-06-12T15:44:24.000Z</time>
      </trkpt>
      <trkpt lat="45.59649" lon="4.60898">
        <ele>521.20001220703</ele>
        <time>2011-06-12T15:44:26.000Z</time>
      </trkpt>
      <trkpt lat="45.5965" lon="4.60896">
        <ele>521.20001220703</ele>
        <time>2011-06-12T15:44:28.000Z</time>
      </trkpt>
      <trkpt lat="45.59657" lon="4.60891">
        <ele>521.40002441406</ele>
        <time>2011-06-12T15:44:32.000Z</time>
      </trkpt>
      <trkpt lat="45.59663" lon="4.60882">
        <ele>521.59997558594</ele>
        <time>2011-06-12T15:44:41.000Z</time>
      </trkpt>
      <trkpt lat="45.59666" lon="4.60881">
        <ele>521.59997558594</ele>
        <time>2011-06-12T15:44:43.000Z</time>
      </trkpt>
      <trkpt lat="45.59671" lon="4.60875">
        <ele>521.79998779297</ele>
        <time>2011-06-12T15:44:47.000Z</time>
      </trkpt>
      <trkpt lat="45.59691" lon="4.60862">
        <ele>521.79998779297</ele>
        <time>2011-06-12T15:45:01.000Z</time>
      </trkpt>
      <trkpt lat="45.59704" lon="4.60853">
        <ele>522.20001220703</ele>
        <time>2011-06-12T15:45:14.000Z</time>
      </trkpt>
      <trkpt lat="45.59707" lon="4.60849">
        <ele>522.59997558594</ele>
        <time>2011-06-12T15:45:17.000Z</time>
      </trkpt>
      <trkpt lat="45.59713" lon="4.60837">
        <ele>523.59997558594</ele>
        <time>2011-06-12T15:45:24.000Z</time>
      </trkpt>
      <trkpt lat="45.59721" lon="4.60829">
        <ele>524</ele>
        <time>2011-06-12T15:45:34.000Z</time>
      </trkpt>
      <trkpt lat="45.59728" lon="4.60823">
        <ele>524.20001220703</ele>
        <time>2011-06-12T15:45:39.000Z</time>
      </trkpt>
      <trkpt lat="45.59734" lon="4.60822">
        <ele>524.40002441406</ele>
        <time>2011-06-12T15:45:45.000Z</time>
      </trkpt>
      <trkpt lat="45.59736" lon="4.60823">
        <ele>524.40002441406</ele>
        <time>2011-06-12T15:45:47.000Z</time>
      </trkpt>
      <trkpt lat="45.59743" lon="4.60819">
        <ele>524.59997558594</ele>
        <time>2011-06-12T15:45:51.000Z</time>
      </trkpt>
      <trkpt lat="45.59756" lon="4.60798">
        <ele>525.40002441406</ele>
        <time>2011-06-12T15:46:02.000Z</time>
      </trkpt>
      <trkpt lat="45.59766" lon="4.60779">
        <ele>526.20001220703</ele>
        <time>2011-06-12T15:46:15.000Z</time>
      </trkpt>
      <trkpt lat="45.59771" lon="4.60774">
        <ele>526.20001220703</ele>
        <time>2011-06-12T15:46:20.000Z</time>
      </trkpt>
      <trkpt lat="45.59781" lon="4.60769">
        <ele>526.40002441406</ele>
        <time>2011-06-12T15:46:27.000Z</time>
      </trkpt>
      <trkpt lat="45.59784" lon="4.60769">
        <ele>526.40002441406</ele>
        <time>2011-06-12T15:46:29.000Z</time>
      </trkpt>
      <trkpt lat="45.59788" lon="4.60763">
        <ele>526.59997558594</ele>
        <time>2011-06-12T15:46:34.000Z</time>
      </trkpt>
      <trkpt lat="45.59789" lon="4.60762">
        <ele>526.59997558594</ele>
        <time>2011-06-12T15:46:45.000Z</time>
      </trkpt>
      <trkpt lat="45.59792" lon="4.60746">
        <ele>527.40002441406</ele>
        <time>2011-06-12T15:46:55.000Z</time>
      </trkpt>
      <trkpt lat="45.59795" lon="4.60738">
        <ele>527.59997558594</ele>
        <time>2011-06-12T15:46:59.000Z</time>
      </trkpt>
      <trkpt lat="45.59805" lon="4.60721">
        <ele>528</ele>
        <time>2011-06-12T15:47:12.000Z</time>
      </trkpt>
      <trkpt lat="45.5982" lon="4.60691">
        <ele>529.40002441406</ele>
        <time>2011-06-12T15:47:29.000Z</time>
      </trkpt>
      <trkpt lat="45.59821" lon="4.60686">
        <ele>529.59997558594</ele>
        <time>2011-06-12T15:47:34.000Z</time>
      </trkpt>
      <trkpt lat="45.59824" lon="4.60679">
        <ele>530</ele>
        <time>2011-06-12T15:47:38.000Z</time>
      </trkpt>
      <trkpt lat="45.59831" lon="4.60669">
        <ele>530.59997558594</ele>
        <time>2011-06-12T15:47:47.000Z</time>
      </trkpt>
      <trkpt lat="45.59845" lon="4.60653">
        <ele>531</ele>
        <time>2011-06-12T15:47:58.000Z</time>
      </trkpt>
      <trkpt lat="45.59849" lon="4.60639">
        <ele>531.20001220703</ele>
        <time>2011-06-12T15:48:11.000Z</time>
      </trkpt>
      <trkpt lat="45.5986" lon="4.60626">
        <ele>531.20001220703</ele>
        <time>2011-06-12T15:48:22.000Z</time>
      </trkpt>
      <trkpt lat="45.59862" lon="4.60622">
        <ele>531.20001220703</ele>
        <time>2011-06-12T15:48:27.000Z</time>
      </trkpt>
      <trkpt lat="45.59882" lon="4.6059">
        <ele>531.79998779297</ele>
        <time>2011-06-12T15:48:40.000Z</time>
      </trkpt>
      <trkpt lat="45.59884" lon="4.60589">
        <ele>531.79998779297</ele>
        <time>2011-06-12T15:48:48.000Z</time>
      </trkpt>
      <trkpt lat="45.59887" lon="4.60584">
        <ele>531.79998779297</ele>
        <time>2011-06-12T15:48:51.000Z</time>
      </trkpt>
      <trkpt lat="45.59891" lon="4.60573">
        <ele>532.20001220703</ele>
        <time>2011-06-12T15:48:55.000Z</time>
      </trkpt>
      <trkpt lat="45.59909" lon="4.60554">
        <ele>532.79998779297</ele>
        <time>2011-06-12T15:49:09.000Z</time>
      </trkpt>
      <trkpt lat="45.59911" lon="4.60554">
        <ele>532.79998779297</ele>
        <time>2011-06-12T15:49:12.000Z</time>
      </trkpt>
      <trkpt lat="45.59914" lon="4.6055">
        <ele>533</ele>
        <time>2011-06-12T15:49:16.000Z</time>
      </trkpt>
      <trkpt lat="45.59922" lon="4.60526">
        <ele>534</ele>
        <time>2011-06-12T15:49:29.000Z</time>
      </trkpt>
      <trkpt lat="45.59937" lon="4.60513">
        <ele>534.20001220703</ele>
        <time>2011-06-12T15:49:42.000Z</time>
      </trkpt>
      <trkpt lat="45.59953" lon="4.60511">
        <ele>534.20001220703</ele>
        <time>2011-06-12T15:49:52.000Z</time>
      </trkpt>
      <trkpt lat="45.59955" lon="4.60506">
        <ele>534.20001220703</ele>
        <time>2011-06-12T15:50:00.000Z</time>
      </trkpt>
      <trkpt lat="45.59967" lon="4.60479">
        <ele>535</ele>
        <time>2011-06-12T15:50:14.000Z</time>
      </trkpt>
      <trkpt lat="45.59977" lon="4.60463">
        <ele>535.59997558594</ele>
        <time>2011-06-12T15:50:30.000Z</time>
      </trkpt>
      <trkpt lat="45.5998" lon="4.60455">
        <ele>536</ele>
        <time>2011-06-12T15:50:34.000Z</time>
      </trkpt>
      <trkpt lat="45.59982" lon="4.60451">
        <ele>536.20001220703</ele>
        <time>2011-06-12T15:50:39.000Z</time>
      </trkpt>
      <trkpt lat="45.59988" lon="4.60439">
        <ele>536.79998779297</ele>
        <time>2011-06-12T15:50:55.000Z</time>
      </trkpt>
      <trkpt lat="45.59988" lon="4.60439">
        <ele>536.79998779297</ele>
        <time>2011-06-12T15:51:28.000Z</time>
      </trkpt>
      <trkpt lat="45.59989" lon="4.60439">
        <ele>536.79998779297</ele>
        <time>2011-06-12T15:51:34.000Z</time>
      </trkpt>
      <trkpt lat="45.59989" lon="4.60439">
        <ele>536.79998779297</ele>
        <time>2011-06-12T15:51:42.000Z</time>
      </trkpt>
    </trkseg>
  </trk>
</gpx>